<?xml version="1.0" encoding="UTF-8" standalone="no" ?>
<gpx xmlns="http://www.topografix.com/GPX/1/1" xmlns:xsi="http://www.w3.org/2001/XMLSchema-instance" xsi:schemaLocation="http://www.topografix.com/GPX/1/1 http://www.topografix.com/GPX/1/1/gpx.xsd" version="1.1" creator="VisuGPX - https://www.visugpx.com">
  <metadata>
    <name>ST_RAD - COMBELLE 9KM  -200M</name>
    <desc><![CDATA[SORTIE 9KM PASSAGE PAR COMBELLE]]></desc>
  </metadata>
  <trk>
    <name><![CDATA[st RA-comb 9km]]></name>
    <trkseg>
      <trkpt lat="44.33557" lon="2.62914">
        <ele>676.4248047</ele>
        <time>2014-06-12T04:23:08Z</time>
      </trkpt>
      <trkpt lat="44.33554" lon="2.62908">
        <ele>675.4633789</ele>
        <time>2014-06-12T04:23:10Z</time>
      </trkpt>
      <trkpt lat="44.33553" lon="2.6289">
        <ele>675.9440918</ele>
        <time>2014-06-12T04:23:14Z</time>
      </trkpt>
      <trkpt lat="44.33545" lon="2.62875">
        <ele>674.9829102</ele>
        <time>2014-06-12T04:23:20Z</time>
      </trkpt>
      <trkpt lat="44.33547" lon="2.62866">
        <ele>674.9829102</ele>
        <time>2014-06-12T04:23:24Z</time>
      </trkpt>
      <trkpt lat="44.33547" lon="2.62863">
        <ele>674.5021973</ele>
        <time>2014-06-12T04:23:25Z</time>
      </trkpt>
      <trkpt lat="44.33551" lon="2.62849">
        <ele>654.795166</ele>
        <time>2014-06-12T04:23:31Z</time>
      </trkpt>
      <trkpt lat="44.33559" lon="2.62839">
        <ele>653.8339844</ele>
        <time>2014-06-12T04:23:36Z</time>
      </trkpt>
      <trkpt lat="44.33565" lon="2.62828">
        <ele>655.2758789</ele>
        <time>2014-06-12T04:23:41Z</time>
      </trkpt>
      <trkpt lat="44.33571" lon="2.62819">
        <ele>658.1599121</ele>
        <time>2014-06-12T04:23:46Z</time>
      </trkpt>
      <trkpt lat="44.33576" lon="2.62808">
        <ele>661.5244141</ele>
        <time>2014-06-12T04:23:51Z</time>
      </trkpt>
      <trkpt lat="44.33576" lon="2.62806">
        <ele>662.4855957</ele>
        <time>2014-06-12T04:23:52Z</time>
      </trkpt>
      <trkpt lat="44.3358" lon="2.6279">
        <ele>665.8503418</ele>
        <time>2014-06-12T04:23:58Z</time>
      </trkpt>
      <trkpt lat="44.33581" lon="2.62788">
        <ele>665.8503418</ele>
        <time>2014-06-12T04:23:59Z</time>
      </trkpt>
      <trkpt lat="44.33584" lon="2.62784">
        <ele>667.2922363</ele>
        <time>2014-06-12T04:24:01Z</time>
      </trkpt>
      <trkpt lat="44.33589" lon="2.62774">
        <ele>669.2150879</ele>
        <time>2014-06-12T04:24:06Z</time>
      </trkpt>
      <trkpt lat="44.33595" lon="2.62766">
        <ele>673.5410156</ele>
        <time>2014-06-12T04:24:11Z</time>
      </trkpt>
      <trkpt lat="44.336" lon="2.62759">
        <ele>677.3862305</ele>
        <time>2014-06-12T04:24:16Z</time>
      </trkpt>
      <trkpt lat="44.33605" lon="2.62749">
        <ele>678.3474121</ele>
        <time>2014-06-12T04:24:21Z</time>
      </trkpt>
      <trkpt lat="44.33607" lon="2.62744">
        <ele>678.828125</ele>
        <time>2014-06-12T04:24:23Z</time>
      </trkpt>
      <trkpt lat="44.3361" lon="2.62727">
        <ele>674.9829102</ele>
        <time>2014-06-12T04:24:29Z</time>
      </trkpt>
      <trkpt lat="44.33611" lon="2.62713">
        <ele>671.6181641</ele>
        <time>2014-06-12T04:24:34Z</time>
      </trkpt>
      <trkpt lat="44.33612" lon="2.6271">
        <ele>672.098877</ele>
        <time>2014-06-12T04:24:40Z</time>
      </trkpt>
      <trkpt lat="44.33611" lon="2.62694">
        <ele>671.6181641</ele>
        <time>2014-06-12T04:24:45Z</time>
      </trkpt>
      <trkpt lat="44.33612" lon="2.62675">
        <ele>667.7727051</ele>
        <time>2014-06-12T04:24:51Z</time>
      </trkpt>
      <trkpt lat="44.33614" lon="2.62659">
        <ele>667.2922363</ele>
        <time>2014-06-12T04:24:56Z</time>
      </trkpt>
      <trkpt lat="44.33617" lon="2.62645">
        <ele>667.2922363</ele>
        <time>2014-06-12T04:25:00Z</time>
      </trkpt>
      <trkpt lat="44.33618" lon="2.62644">
        <ele>666.8115234</ele>
        <time>2014-06-12T04:25:01Z</time>
      </trkpt>
      <trkpt lat="44.33628" lon="2.62647">
        <ele>668.734375</ele>
        <time>2014-06-12T04:25:06Z</time>
      </trkpt>
      <trkpt lat="44.33641" lon="2.62647">
        <ele>670.6569824</ele>
        <time>2014-06-12T04:25:12Z</time>
      </trkpt>
      <trkpt lat="44.33647" lon="2.62646">
        <ele>671.6181641</ele>
        <time>2014-06-12T04:25:15Z</time>
      </trkpt>
      <trkpt lat="44.33654" lon="2.62635">
        <ele>670.1762695</ele>
        <time>2014-06-12T04:25:20Z</time>
      </trkpt>
      <trkpt lat="44.33657" lon="2.62616">
        <ele>670.1762695</ele>
        <time>2014-06-12T04:25:26Z</time>
      </trkpt>
      <trkpt lat="44.33658" lon="2.62599">
        <ele>668.734375</ele>
        <time>2014-06-12T04:25:31Z</time>
      </trkpt>
      <trkpt lat="44.3366" lon="2.62588">
        <ele>668.734375</ele>
        <time>2014-06-12T04:25:34Z</time>
      </trkpt>
      <trkpt lat="44.33659" lon="2.62581">
        <ele>668.734375</ele>
        <time>2014-06-12T04:25:36Z</time>
      </trkpt>
      <trkpt lat="44.33659" lon="2.62565">
        <ele>666.8115234</ele>
        <time>2014-06-12T04:25:41Z</time>
      </trkpt>
      <trkpt lat="44.33657" lon="2.62552">
        <ele>665.8503418</ele>
        <time>2014-06-12T04:25:45Z</time>
      </trkpt>
      <trkpt lat="44.33657" lon="2.62545">
        <ele>664.888916</ele>
        <time>2014-06-12T04:25:47Z</time>
      </trkpt>
      <trkpt lat="44.33656" lon="2.62529">
        <ele>663.9274902</ele>
        <time>2014-06-12T04:25:52Z</time>
      </trkpt>
      <trkpt lat="44.33654" lon="2.62503">
        <ele>663.4470215</ele>
        <time>2014-06-12T04:25:59Z</time>
      </trkpt>
      <trkpt lat="44.33652" lon="2.62487">
        <ele>664.4082031</ele>
        <time>2014-06-12T04:26:04Z</time>
      </trkpt>
      <trkpt lat="44.33651" lon="2.62475">
        <ele>665.3696289</ele>
        <time>2014-06-12T04:26:07Z</time>
      </trkpt>
      <trkpt lat="44.33649" lon="2.62458">
        <ele>665.3696289</ele>
        <time>2014-06-12T04:26:12Z</time>
      </trkpt>
      <trkpt lat="44.33646" lon="2.62441">
        <ele>666.8115234</ele>
        <time>2014-06-12T04:26:18Z</time>
      </trkpt>
      <trkpt lat="44.33645" lon="2.62421">
        <ele>664.888916</ele>
        <time>2014-06-12T04:26:24Z</time>
      </trkpt>
      <trkpt lat="44.33642" lon="2.62401">
        <ele>664.4082031</ele>
        <time>2014-06-12T04:26:29Z</time>
      </trkpt>
      <trkpt lat="44.3364" lon="2.6239">
        <ele>663.4470215</ele>
        <time>2014-06-12T04:26:32Z</time>
      </trkpt>
      <trkpt lat="44.33641" lon="2.62368">
        <ele>662.005127</ele>
        <time>2014-06-12T04:26:38Z</time>
      </trkpt>
      <trkpt lat="44.33643" lon="2.6235">
        <ele>659.1210938</ele>
        <time>2014-06-12T04:26:43Z</time>
      </trkpt>
      <trkpt lat="44.33647" lon="2.62333">
        <ele>658.6403809</ele>
        <time>2014-06-12T04:26:48Z</time>
      </trkpt>
      <trkpt lat="44.33652" lon="2.62315">
        <ele>658.6403809</ele>
        <time>2014-06-12T04:26:53Z</time>
      </trkpt>
      <trkpt lat="44.33659" lon="2.62299">
        <ele>657.6791992</ele>
        <time>2014-06-12T04:26:58Z</time>
      </trkpt>
      <trkpt lat="44.33665" lon="2.62282">
        <ele>656.7177734</ele>
        <time>2014-06-12T04:27:03Z</time>
      </trkpt>
      <trkpt lat="44.3367" lon="2.62265">
        <ele>655.7565918</ele>
        <time>2014-06-12T04:27:08Z</time>
      </trkpt>
      <trkpt lat="44.33675" lon="2.62248">
        <ele>656.7177734</ele>
        <time>2014-06-12T04:27:13Z</time>
      </trkpt>
      <trkpt lat="44.3368" lon="2.62227">
        <ele>656.2370605</ele>
        <time>2014-06-12T04:27:19Z</time>
      </trkpt>
      <trkpt lat="44.33685" lon="2.6221">
        <ele>655.7565918</ele>
        <time>2014-06-12T04:27:24Z</time>
      </trkpt>
      <trkpt lat="44.33691" lon="2.62189">
        <ele>654.795166</ele>
        <time>2014-06-12T04:27:30Z</time>
      </trkpt>
      <trkpt lat="44.33696" lon="2.62172">
        <ele>653.8339844</ele>
        <time>2014-06-12T04:27:35Z</time>
      </trkpt>
      <trkpt lat="44.337" lon="2.6215">
        <ele>651.9111328</ele>
        <time>2014-06-12T04:27:41Z</time>
      </trkpt>
      <trkpt lat="44.33703" lon="2.62124">
        <ele>649.9885254</ele>
        <time>2014-06-12T04:27:48Z</time>
      </trkpt>
      <trkpt lat="44.33703" lon="2.62101">
        <ele>647.1044922</ele>
        <time>2014-06-12T04:27:54Z</time>
      </trkpt>
      <trkpt lat="44.33701" lon="2.62081">
        <ele>644.7011719</ele>
        <time>2014-06-12T04:28:00Z</time>
      </trkpt>
      <trkpt lat="44.33698" lon="2.62059">
        <ele>643.7399902</ele>
        <time>2014-06-12T04:28:06Z</time>
      </trkpt>
      <trkpt lat="44.33695" lon="2.62037">
        <ele>642.2980957</ele>
        <time>2014-06-12T04:28:12Z</time>
      </trkpt>
      <trkpt lat="44.33692" lon="2.62017">
        <ele>641.8173828</ele>
        <time>2014-06-12T04:28:17Z</time>
      </trkpt>
      <trkpt lat="44.33687" lon="2.61994">
        <ele>641.3366699</ele>
        <time>2014-06-12T04:28:23Z</time>
      </trkpt>
      <trkpt lat="44.33682" lon="2.61977">
        <ele>642.2980957</ele>
        <time>2014-06-12T04:28:28Z</time>
      </trkpt>
      <trkpt lat="44.33677" lon="2.61961">
        <ele>642.7788086</ele>
        <time>2014-06-12T04:28:33Z</time>
      </trkpt>
      <trkpt lat="44.33666" lon="2.61944">
        <ele>640.855957</ele>
        <time>2014-06-12T04:28:39Z</time>
      </trkpt>
      <trkpt lat="44.33653" lon="2.61926">
        <ele>641.8173828</ele>
        <time>2014-06-12T04:28:46Z</time>
      </trkpt>
      <trkpt lat="44.3364" lon="2.61916">
        <ele>643.2592773</ele>
        <time>2014-06-12T04:28:52Z</time>
      </trkpt>
      <trkpt lat="44.33638" lon="2.61915">
        <ele>642.7788086</ele>
        <time>2014-06-12T04:28:53Z</time>
      </trkpt>
      <trkpt lat="44.33623" lon="2.61905">
        <ele>639.4140625</ele>
        <time>2014-06-12T04:28:59Z</time>
      </trkpt>
      <trkpt lat="44.3361" lon="2.61899">
        <ele>637.972168</ele>
        <time>2014-06-12T04:29:04Z</time>
      </trkpt>
      <trkpt lat="44.33598" lon="2.61892">
        <ele>637.0107422</ele>
        <time>2014-06-12T04:29:09Z</time>
      </trkpt>
      <trkpt lat="44.33584" lon="2.61883">
        <ele>635.0881348</ele>
        <time>2014-06-12T04:29:15Z</time>
      </trkpt>
      <trkpt lat="44.33566" lon="2.61872">
        <ele>632.6848145</ele>
        <time>2014-06-12T04:29:22Z</time>
      </trkpt>
      <trkpt lat="44.33554" lon="2.61859">
        <ele>631.2429199</ele>
        <time>2014-06-12T04:29:28Z</time>
      </trkpt>
      <trkpt lat="44.33545" lon="2.61845">
        <ele>628.8395996</ele>
        <time>2014-06-12T04:29:33Z</time>
      </trkpt>
      <trkpt lat="44.33536" lon="2.61822">
        <ele>626.4362793</ele>
        <time>2014-06-12T04:29:40Z</time>
      </trkpt>
      <trkpt lat="44.3353" lon="2.61802">
        <ele>625.4748535</ele>
        <time>2014-06-12T04:29:46Z</time>
      </trkpt>
      <trkpt lat="44.33527" lon="2.61781">
        <ele>624.9943848</ele>
        <time>2014-06-12T04:29:52Z</time>
      </trkpt>
      <trkpt lat="44.33527" lon="2.61759">
        <ele>624.032959</ele>
        <time>2014-06-12T04:29:58Z</time>
      </trkpt>
      <trkpt lat="44.33529" lon="2.61737">
        <ele>623.0717773</ele>
        <time>2014-06-12T04:30:04Z</time>
      </trkpt>
      <trkpt lat="44.33532" lon="2.61714">
        <ele>623.0717773</ele>
        <time>2014-06-12T04:30:10Z</time>
      </trkpt>
      <trkpt lat="44.33535" lon="2.61693">
        <ele>622.5910645</ele>
        <time>2014-06-12T04:30:16Z</time>
      </trkpt>
      <trkpt lat="44.33537" lon="2.61674">
        <ele>623.5524902</ele>
        <time>2014-06-12T04:30:21Z</time>
      </trkpt>
      <trkpt lat="44.33539" lon="2.61656">
        <ele>623.5524902</ele>
        <time>2014-06-12T04:30:26Z</time>
      </trkpt>
      <trkpt lat="44.33544" lon="2.61634">
        <ele>622.1103516</ele>
        <time>2014-06-12T04:30:32Z</time>
      </trkpt>
      <trkpt lat="44.33548" lon="2.61618">
        <ele>620.668457</ele>
        <time>2014-06-12T04:30:37Z</time>
      </trkpt>
      <trkpt lat="44.33551" lon="2.61609">
        <ele>619.2263184</ele>
        <time>2014-06-12T04:30:40Z</time>
      </trkpt>
      <trkpt lat="44.33555" lon="2.61597">
        <ele>617.3037109</ele>
        <time>2014-06-12T04:30:44Z</time>
      </trkpt>
      <trkpt lat="44.33561" lon="2.61575">
        <ele>615.8618164</ele>
        <time>2014-06-12T04:30:50Z</time>
      </trkpt>
      <trkpt lat="44.33566" lon="2.61554">
        <ele>613.4584961</ele>
        <time>2014-06-12T04:30:56Z</time>
      </trkpt>
      <trkpt lat="44.33572" lon="2.61533">
        <ele>611.0551758</ele>
        <time>2014-06-12T04:31:02Z</time>
      </trkpt>
      <trkpt lat="44.33577" lon="2.61509">
        <ele>609.1325684</ele>
        <time>2014-06-12T04:31:09Z</time>
      </trkpt>
      <trkpt lat="44.33582" lon="2.61496">
        <ele>608.6518555</ele>
        <time>2014-06-12T04:31:13Z</time>
      </trkpt>
      <trkpt lat="44.33587" lon="2.61483">
        <ele>608.6518555</ele>
        <time>2014-06-12T04:31:17Z</time>
      </trkpt>
      <trkpt lat="44.33591" lon="2.61469">
        <ele>609.1325684</ele>
        <time>2014-06-12T04:31:21Z</time>
      </trkpt>
      <trkpt lat="44.33596" lon="2.61456">
        <ele>609.6132813</ele>
        <time>2014-06-12T04:31:25Z</time>
      </trkpt>
      <trkpt lat="44.33603" lon="2.61436">
        <ele>608.1713867</ele>
        <time>2014-06-12T04:31:31Z</time>
      </trkpt>
      <trkpt lat="44.33609" lon="2.61421">
        <ele>608.6518555</ele>
        <time>2014-06-12T04:31:36Z</time>
      </trkpt>
      <trkpt lat="44.33613" lon="2.61406">
        <ele>608.6518555</ele>
        <time>2014-06-12T04:31:41Z</time>
      </trkpt>
      <trkpt lat="44.33615" lon="2.61392">
        <ele>608.6518555</ele>
        <time>2014-06-12T04:31:45Z</time>
      </trkpt>
      <trkpt lat="44.33619" lon="2.61379">
        <ele>609.1325684</ele>
        <time>2014-06-12T04:31:49Z</time>
      </trkpt>
      <trkpt lat="44.33624" lon="2.61367">
        <ele>608.6518555</ele>
        <time>2014-06-12T04:31:53Z</time>
      </trkpt>
      <trkpt lat="44.33629" lon="2.61351">
        <ele>609.6132813</ele>
        <time>2014-06-12T04:31:58Z</time>
      </trkpt>
      <trkpt lat="44.33633" lon="2.61343">
        <ele>609.6132813</ele>
        <time>2014-06-12T04:32:01Z</time>
      </trkpt>
      <trkpt lat="44.33638" lon="2.61327">
        <ele>610.09375</ele>
        <time>2014-06-12T04:32:06Z</time>
      </trkpt>
      <trkpt lat="44.3364" lon="2.61321">
        <ele>610.09375</ele>
        <time>2014-06-12T04:32:08Z</time>
      </trkpt>
      <trkpt lat="44.33646" lon="2.613">
        <ele>608.6518555</ele>
        <time>2014-06-12T04:32:14Z</time>
      </trkpt>
      <trkpt lat="44.33651" lon="2.61283">
        <ele>607.6906738</ele>
        <time>2014-06-12T04:32:19Z</time>
      </trkpt>
      <trkpt lat="44.33657" lon="2.61266">
        <ele>607.6906738</ele>
        <time>2014-06-12T04:32:24Z</time>
      </trkpt>
      <trkpt lat="44.33663" lon="2.61249">
        <ele>608.6518555</ele>
        <time>2014-06-12T04:32:29Z</time>
      </trkpt>
      <trkpt lat="44.33666" lon="2.61235">
        <ele>608.6518555</ele>
        <time>2014-06-12T04:32:33Z</time>
      </trkpt>
      <trkpt lat="44.33669" lon="2.61218">
        <ele>608.6518555</ele>
        <time>2014-06-12T04:32:38Z</time>
      </trkpt>
      <trkpt lat="44.33669" lon="2.61204">
        <ele>608.6518555</ele>
        <time>2014-06-12T04:32:42Z</time>
      </trkpt>
      <trkpt lat="44.33663" lon="2.61196">
        <ele>605.7680664</ele>
        <time>2014-06-12T04:32:46Z</time>
      </trkpt>
      <trkpt lat="44.33651" lon="2.61179">
        <ele>604.8066406</ele>
        <time>2014-06-12T04:32:53Z</time>
      </trkpt>
      <trkpt lat="44.33642" lon="2.61163">
        <ele>602.8837891</ele>
        <time>2014-06-12T04:32:59Z</time>
      </trkpt>
      <trkpt lat="44.33637" lon="2.61148">
        <ele>602.4030762</ele>
        <time>2014-06-12T04:33:04Z</time>
      </trkpt>
      <trkpt lat="44.33633" lon="2.61129">
        <ele>601.9226074</ele>
        <time>2014-06-12T04:33:09Z</time>
      </trkpt>
      <trkpt lat="44.33634" lon="2.61106">
        <ele>601.4418945</ele>
        <time>2014-06-12T04:33:15Z</time>
      </trkpt>
      <trkpt lat="44.33632" lon="2.61085">
        <ele>600.9611816</ele>
        <time>2014-06-12T04:33:21Z</time>
      </trkpt>
      <trkpt lat="44.33626" lon="2.61071">
        <ele>600.4807129</ele>
        <time>2014-06-12T04:33:25Z</time>
      </trkpt>
      <trkpt lat="44.33624" lon="2.61068">
        <ele>600.4807129</ele>
        <time>2014-06-12T04:33:26Z</time>
      </trkpt>
      <trkpt lat="44.33617" lon="2.6106">
        <ele>599.5192871</ele>
        <time>2014-06-12T04:33:30Z</time>
      </trkpt>
      <trkpt lat="44.33607" lon="2.61051">
        <ele>599.5192871</ele>
        <time>2014-06-12T04:33:35Z</time>
      </trkpt>
      <trkpt lat="44.33595" lon="2.6104">
        <ele>599.0385742</ele>
        <time>2014-06-12T04:33:41Z</time>
      </trkpt>
      <trkpt lat="44.33587" lon="2.61033">
        <ele>599.5192871</ele>
        <time>2014-06-12T04:33:45Z</time>
      </trkpt>
      <trkpt lat="44.33577" lon="2.6102">
        <ele>600</ele>
        <time>2014-06-12T04:33:50Z</time>
      </trkpt>
      <trkpt lat="44.3357" lon="2.61009">
        <ele>599.5192871</ele>
        <time>2014-06-12T04:33:54Z</time>
      </trkpt>
      <trkpt lat="44.33564" lon="2.60999">
        <ele>599.5192871</ele>
        <time>2014-06-12T04:33:58Z</time>
      </trkpt>
      <trkpt lat="44.33559" lon="2.60985">
        <ele>599.5192871</ele>
        <time>2014-06-12T04:34:03Z</time>
      </trkpt>
      <trkpt lat="44.33553" lon="2.6097">
        <ele>600.9611816</ele>
        <time>2014-06-12T04:34:09Z</time>
      </trkpt>
      <trkpt lat="44.33548" lon="2.60951">
        <ele>602.4030762</ele>
        <time>2014-06-12T04:34:15Z</time>
      </trkpt>
      <trkpt lat="44.33542" lon="2.60929">
        <ele>604.3261719</ele>
        <time>2014-06-12T04:34:22Z</time>
      </trkpt>
      <trkpt lat="44.33537" lon="2.60906">
        <ele>606.2485352</ele>
        <time>2014-06-12T04:34:29Z</time>
      </trkpt>
      <trkpt lat="44.33531" lon="2.6089">
        <ele>605.7680664</ele>
        <time>2014-06-12T04:34:34Z</time>
      </trkpt>
      <trkpt lat="44.33527" lon="2.60873">
        <ele>605.7680664</ele>
        <time>2014-06-12T04:34:39Z</time>
      </trkpt>
      <trkpt lat="44.3352" lon="2.60855">
        <ele>604.3261719</ele>
        <time>2014-06-12T04:34:45Z</time>
      </trkpt>
      <trkpt lat="44.33515" lon="2.60834">
        <ele>605.7680664</ele>
        <time>2014-06-12T04:34:52Z</time>
      </trkpt>
      <trkpt lat="44.33512" lon="2.60817">
        <ele>606.2485352</ele>
        <time>2014-06-12T04:34:57Z</time>
      </trkpt>
      <trkpt lat="44.3351" lon="2.60797">
        <ele>604.3261719</ele>
        <time>2014-06-12T04:35:03Z</time>
      </trkpt>
      <trkpt lat="44.33508" lon="2.60777">
        <ele>603.8452148</ele>
        <time>2014-06-12T04:35:09Z</time>
      </trkpt>
      <trkpt lat="44.33505" lon="2.60764">
        <ele>603.8452148</ele>
        <time>2014-06-12T04:35:13Z</time>
      </trkpt>
      <trkpt lat="44.33498" lon="2.60756">
        <ele>603.8452148</ele>
        <time>2014-06-12T04:35:17Z</time>
      </trkpt>
      <trkpt lat="44.3349" lon="2.60752">
        <ele>602.4030762</ele>
        <time>2014-06-12T04:35:21Z</time>
      </trkpt>
      <trkpt lat="44.33479" lon="2.60746">
        <ele>602.4030762</ele>
        <time>2014-06-12T04:35:26Z</time>
      </trkpt>
      <trkpt lat="44.3347" lon="2.60739">
        <ele>601.9226074</ele>
        <time>2014-06-12T04:35:30Z</time>
      </trkpt>
      <trkpt lat="44.3346" lon="2.60736">
        <ele>600.9611816</ele>
        <time>2014-06-12T04:35:34Z</time>
      </trkpt>
      <trkpt lat="44.33457" lon="2.60727">
        <ele>600</ele>
        <time>2014-06-12T04:35:37Z</time>
      </trkpt>
      <trkpt lat="44.33456" lon="2.60724">
        <ele>600</ele>
        <time>2014-06-12T04:35:38Z</time>
      </trkpt>
      <trkpt lat="44.33452" lon="2.60703">
        <ele>600</ele>
        <time>2014-06-12T04:35:44Z</time>
      </trkpt>
      <trkpt lat="44.3345" lon="2.60686">
        <ele>598.5578613</ele>
        <time>2014-06-12T04:35:49Z</time>
      </trkpt>
      <trkpt lat="44.33447" lon="2.60668">
        <ele>597.5966797</ele>
        <time>2014-06-12T04:35:54Z</time>
      </trkpt>
      <trkpt lat="44.33445" lon="2.60654">
        <ele>597.1159668</ele>
        <time>2014-06-12T04:35:58Z</time>
      </trkpt>
      <trkpt lat="44.33442" lon="2.60633">
        <ele>598.0773926</ele>
        <time>2014-06-12T04:36:04Z</time>
      </trkpt>
      <trkpt lat="44.33435" lon="2.60619">
        <ele>600.9611816</ele>
        <time>2014-06-12T04:36:09Z</time>
      </trkpt>
      <trkpt lat="44.3342" lon="2.60617">
        <ele>603.364502</ele>
        <time>2014-06-12T04:36:15Z</time>
      </trkpt>
      <trkpt lat="44.33408" lon="2.60614">
        <ele>606.2485352</ele>
        <time>2014-06-12T04:36:21Z</time>
      </trkpt>
      <trkpt lat="44.33393" lon="2.60607">
        <ele>604.3261719</ele>
        <time>2014-06-12T04:36:28Z</time>
      </trkpt>
      <trkpt lat="44.33384" lon="2.60606">
        <ele>605.7680664</ele>
        <time>2014-06-12T04:36:32Z</time>
      </trkpt>
      <trkpt lat="44.33379" lon="2.60607">
        <ele>606.729248</ele>
        <time>2014-06-12T04:36:34Z</time>
      </trkpt>
      <trkpt lat="44.33368" lon="2.60609">
        <ele>608.1713867</ele>
        <time>2014-06-12T04:36:39Z</time>
      </trkpt>
      <trkpt lat="44.33365" lon="2.60611">
        <ele>609.1325684</ele>
        <time>2014-06-12T04:36:41Z</time>
      </trkpt>
      <trkpt lat="44.33352" lon="2.60616">
        <ele>610.5744629</ele>
        <time>2014-06-12T04:36:47Z</time>
      </trkpt>
      <trkpt lat="44.33342" lon="2.60619">
        <ele>611.5358887</ele>
        <time>2014-06-12T04:36:52Z</time>
      </trkpt>
      <trkpt lat="44.33331" lon="2.60621">
        <ele>612.9777832</ele>
        <time>2014-06-12T04:36:57Z</time>
      </trkpt>
      <trkpt lat="44.33322" lon="2.60623">
        <ele>613.9389648</ele>
        <time>2014-06-12T04:37:02Z</time>
      </trkpt>
      <trkpt lat="44.3331" lon="2.60625">
        <ele>615.8618164</ele>
        <time>2014-06-12T04:37:07Z</time>
      </trkpt>
      <trkpt lat="44.33304" lon="2.60628">
        <ele>617.3037109</ele>
        <time>2014-06-12T04:37:10Z</time>
      </trkpt>
      <trkpt lat="44.33291" lon="2.60641">
        <ele>621.6296387</ele>
        <time>2014-06-12T04:37:16Z</time>
      </trkpt>
      <trkpt lat="44.3328" lon="2.60652">
        <ele>624.032959</ele>
        <time>2014-06-12T04:37:21Z</time>
      </trkpt>
      <trkpt lat="44.33273" lon="2.60659">
        <ele>624.9943848</ele>
        <time>2014-06-12T04:37:25Z</time>
      </trkpt>
      <trkpt lat="44.33265" lon="2.60671">
        <ele>627.8781738</ele>
        <time>2014-06-12T04:37:31Z</time>
      </trkpt>
      <trkpt lat="44.33259" lon="2.60679">
        <ele>628.8395996</ele>
        <time>2014-06-12T04:37:35Z</time>
      </trkpt>
      <trkpt lat="44.33251" lon="2.60692">
        <ele>630.762207</ele>
        <time>2014-06-12T04:37:41Z</time>
      </trkpt>
      <trkpt lat="44.33243" lon="2.60706">
        <ele>632.6848145</ele>
        <time>2014-06-12T04:37:47Z</time>
      </trkpt>
      <trkpt lat="44.33232" lon="2.60718">
        <ele>633.6459961</ele>
        <time>2014-06-12T04:37:53Z</time>
      </trkpt>
      <trkpt lat="44.33222" lon="2.60719">
        <ele>633.6459961</ele>
        <time>2014-06-12T04:37:58Z</time>
      </trkpt>
      <trkpt lat="44.33214" lon="2.60706">
        <ele>636.5302734</ele>
        <time>2014-06-12T04:38:03Z</time>
      </trkpt>
      <trkpt lat="44.33204" lon="2.60691">
        <ele>637.0107422</ele>
        <time>2014-06-12T04:38:08Z</time>
      </trkpt>
      <trkpt lat="44.33194" lon="2.60677">
        <ele>637.4914551</ele>
        <time>2014-06-12T04:38:13Z</time>
      </trkpt>
      <trkpt lat="44.33189" lon="2.60669">
        <ele>637.4914551</ele>
        <time>2014-06-12T04:38:16Z</time>
      </trkpt>
      <trkpt lat="44.33183" lon="2.60656">
        <ele>637.972168</ele>
        <time>2014-06-12T04:38:20Z</time>
      </trkpt>
      <trkpt lat="44.33176" lon="2.60636">
        <ele>637.0107422</ele>
        <time>2014-06-12T04:38:26Z</time>
      </trkpt>
      <trkpt lat="44.33172" lon="2.60623">
        <ele>636.0495605</ele>
        <time>2014-06-12T04:38:30Z</time>
      </trkpt>
      <trkpt lat="44.33167" lon="2.60604">
        <ele>634.6074219</ele>
        <time>2014-06-12T04:38:35Z</time>
      </trkpt>
      <trkpt lat="44.33165" lon="2.60581">
        <ele>633.6459961</ele>
        <time>2014-06-12T04:38:41Z</time>
      </trkpt>
      <trkpt lat="44.33166" lon="2.60558">
        <ele>634.126709</ele>
        <time>2014-06-12T04:38:47Z</time>
      </trkpt>
      <trkpt lat="44.33168" lon="2.60541">
        <ele>634.126709</ele>
        <time>2014-06-12T04:38:52Z</time>
      </trkpt>
      <trkpt lat="44.33166" lon="2.60515">
        <ele>632.2041016</ele>
        <time>2014-06-12T04:38:59Z</time>
      </trkpt>
      <trkpt lat="44.3316" lon="2.60491">
        <ele>630.2814941</ele>
        <time>2014-06-12T04:39:06Z</time>
      </trkpt>
      <trkpt lat="44.33157" lon="2.60477">
        <ele>629.8007813</ele>
        <time>2014-06-12T04:39:10Z</time>
      </trkpt>
      <trkpt lat="44.33155" lon="2.60469">
        <ele>628.8395996</ele>
        <time>2014-06-12T04:39:12Z</time>
      </trkpt>
      <trkpt lat="44.33153" lon="2.60448">
        <ele>627.8781738</ele>
        <time>2014-06-12T04:39:18Z</time>
      </trkpt>
      <trkpt lat="44.33149" lon="2.6043">
        <ele>626.4362793</ele>
        <time>2014-06-12T04:39:23Z</time>
      </trkpt>
      <trkpt lat="44.33147" lon="2.60412">
        <ele>626.9169922</ele>
        <time>2014-06-12T04:39:28Z</time>
      </trkpt>
      <trkpt lat="44.33144" lon="2.60391">
        <ele>626.4362793</ele>
        <time>2014-06-12T04:39:34Z</time>
      </trkpt>
      <trkpt lat="44.33141" lon="2.60374">
        <ele>625.9555664</ele>
        <time>2014-06-12T04:39:39Z</time>
      </trkpt>
      <trkpt lat="44.33136" lon="2.60348">
        <ele>625.9555664</ele>
        <time>2014-06-12T04:39:46Z</time>
      </trkpt>
      <trkpt lat="44.33134" lon="2.60332">
        <ele>627.3977051</ele>
        <time>2014-06-12T04:39:50Z</time>
      </trkpt>
      <trkpt lat="44.33133" lon="2.60311">
        <ele>627.3977051</ele>
        <time>2014-06-12T04:39:56Z</time>
      </trkpt>
      <trkpt lat="44.33132" lon="2.60297">
        <ele>627.8781738</ele>
        <time>2014-06-12T04:40:00Z</time>
      </trkpt>
      <trkpt lat="44.33129" lon="2.60286">
        <ele>627.3977051</ele>
        <time>2014-06-12T04:40:03Z</time>
      </trkpt>
      <trkpt lat="44.33127" lon="2.60267">
        <ele>627.8781738</ele>
        <time>2014-06-12T04:40:09Z</time>
      </trkpt>
      <trkpt lat="44.33124" lon="2.6025">
        <ele>627.3977051</ele>
        <time>2014-06-12T04:40:14Z</time>
      </trkpt>
      <trkpt lat="44.33119" lon="2.60231">
        <ele>626.4362793</ele>
        <time>2014-06-12T04:40:19Z</time>
      </trkpt>
      <trkpt lat="44.33116" lon="2.60225">
        <ele>626.4362793</ele>
        <time>2014-06-12T04:40:21Z</time>
      </trkpt>
      <trkpt lat="44.33108" lon="2.60206">
        <ele>626.4362793</ele>
        <time>2014-06-12T04:40:27Z</time>
      </trkpt>
      <trkpt lat="44.33101" lon="2.6019">
        <ele>627.3977051</ele>
        <time>2014-06-12T04:40:32Z</time>
      </trkpt>
      <trkpt lat="44.33091" lon="2.60171">
        <ele>626.9169922</ele>
        <time>2014-06-12T04:40:38Z</time>
      </trkpt>
      <trkpt lat="44.33083" lon="2.60158">
        <ele>627.3977051</ele>
        <time>2014-06-12T04:40:43Z</time>
      </trkpt>
      <trkpt lat="44.33078" lon="2.60144">
        <ele>627.3977051</ele>
        <time>2014-06-12T04:40:48Z</time>
      </trkpt>
      <trkpt lat="44.33075" lon="2.60139">
        <ele>627.3977051</ele>
        <time>2014-06-12T04:40:52Z</time>
      </trkpt>
      <trkpt lat="44.33074" lon="2.60138">
        <ele>627.3977051</ele>
        <time>2014-06-12T04:40:53Z</time>
      </trkpt>
      <trkpt lat="44.33072" lon="2.60138">
        <ele>627.3977051</ele>
        <time>2014-06-12T04:40:55Z</time>
      </trkpt>
      <trkpt lat="44.33067" lon="2.60117">
        <ele>626.9169922</ele>
        <time>2014-06-12T04:42:42Z</time>
      </trkpt>
      <trkpt lat="44.33066" lon="2.60115">
        <ele>626.9169922</ele>
        <time>2014-06-12T04:42:43Z</time>
      </trkpt>
      <trkpt lat="44.33065" lon="2.60111">
        <ele>626.9169922</ele>
        <time>2014-06-12T04:42:44Z</time>
      </trkpt>
      <trkpt lat="44.33061" lon="2.60092">
        <ele>628.3588867</ele>
        <time>2014-06-12T04:42:50Z</time>
      </trkpt>
      <trkpt lat="44.33058" lon="2.60069">
        <ele>627.8781738</ele>
        <time>2014-06-12T04:42:56Z</time>
      </trkpt>
      <trkpt lat="44.33061" lon="2.60046">
        <ele>626.4362793</ele>
        <time>2014-06-12T04:43:02Z</time>
      </trkpt>
      <trkpt lat="44.33066" lon="2.60028">
        <ele>624.9943848</ele>
        <time>2014-06-12T04:43:07Z</time>
      </trkpt>
      <trkpt lat="44.3307" lon="2.60009">
        <ele>624.5136719</ele>
        <time>2014-06-12T04:43:12Z</time>
      </trkpt>
      <trkpt lat="44.33074" lon="2.59985">
        <ele>624.9943848</ele>
        <time>2014-06-12T04:43:18Z</time>
      </trkpt>
      <trkpt lat="44.33076" lon="2.59973">
        <ele>624.5136719</ele>
        <time>2014-06-12T04:43:21Z</time>
      </trkpt>
      <trkpt lat="44.33076" lon="2.59955">
        <ele>624.9943848</ele>
        <time>2014-06-12T04:43:25Z</time>
      </trkpt>
      <trkpt lat="44.33076" lon="2.59952">
        <ele>625.4748535</ele>
        <time>2014-06-12T04:43:26Z</time>
      </trkpt>
      <trkpt lat="44.33078" lon="2.5993">
        <ele>625.4748535</ele>
        <time>2014-06-12T04:43:32Z</time>
      </trkpt>
      <trkpt lat="44.33078" lon="2.59899">
        <ele>627.3977051</ele>
        <time>2014-06-12T04:43:40Z</time>
      </trkpt>
      <trkpt lat="44.33079" lon="2.5988">
        <ele>628.3588867</ele>
        <time>2014-06-12T04:43:45Z</time>
      </trkpt>
      <trkpt lat="44.33085" lon="2.59862">
        <ele>630.2814941</ele>
        <time>2014-06-12T04:43:50Z</time>
      </trkpt>
      <trkpt lat="44.33093" lon="2.59845">
        <ele>629.8007813</ele>
        <time>2014-06-12T04:43:55Z</time>
      </trkpt>
      <trkpt lat="44.33102" lon="2.5983">
        <ele>631.2429199</ele>
        <time>2014-06-12T04:44:00Z</time>
      </trkpt>
      <trkpt lat="44.33113" lon="2.59817">
        <ele>633.1652832</ele>
        <time>2014-06-12T04:44:05Z</time>
      </trkpt>
      <trkpt lat="44.33133" lon="2.59809">
        <ele>627.8781738</ele>
        <time>2014-06-12T04:44:12Z</time>
      </trkpt>
      <trkpt lat="44.33148" lon="2.59804">
        <ele>625.9555664</ele>
        <time>2014-06-12T04:44:17Z</time>
      </trkpt>
      <trkpt lat="44.33161" lon="2.59804">
        <ele>624.9943848</ele>
        <time>2014-06-12T04:44:22Z</time>
      </trkpt>
      <trkpt lat="44.33173" lon="2.598">
        <ele>624.5136719</ele>
        <time>2014-06-12T04:44:27Z</time>
      </trkpt>
      <trkpt lat="44.33184" lon="2.59792">
        <ele>623.5524902</ele>
        <time>2014-06-12T04:44:32Z</time>
      </trkpt>
      <trkpt lat="44.3319" lon="2.59787">
        <ele>622.5910645</ele>
        <time>2014-06-12T04:44:35Z</time>
      </trkpt>
      <trkpt lat="44.33193" lon="2.59792">
        <ele>620.1877441</ele>
        <time>2014-06-12T04:44:40Z</time>
      </trkpt>
      <trkpt lat="44.33193" lon="2.59793">
        <ele>620.668457</ele>
        <time>2014-06-12T04:44:44Z</time>
      </trkpt>
      <trkpt lat="44.3319" lon="2.5981">
        <ele>621.1491699</ele>
        <time>2014-06-12T04:44:49Z</time>
      </trkpt>
      <trkpt lat="44.33186" lon="2.59826">
        <ele>620.668457</ele>
        <time>2014-06-12T04:44:53Z</time>
      </trkpt>
      <trkpt lat="44.3318" lon="2.59845">
        <ele>620.668457</ele>
        <time>2014-06-12T04:44:58Z</time>
      </trkpt>
      <trkpt lat="44.33173" lon="2.59866">
        <ele>620.668457</ele>
        <time>2014-06-12T04:45:04Z</time>
      </trkpt>
      <trkpt lat="44.33167" lon="2.59887">
        <ele>620.668457</ele>
        <time>2014-06-12T04:45:10Z</time>
      </trkpt>
      <trkpt lat="44.33161" lon="2.59908">
        <ele>621.6296387</ele>
        <time>2014-06-12T04:45:16Z</time>
      </trkpt>
      <trkpt lat="44.33154" lon="2.5993">
        <ele>622.1103516</ele>
        <time>2014-06-12T04:45:22Z</time>
      </trkpt>
      <trkpt lat="44.33152" lon="2.59948">
        <ele>622.1103516</ele>
        <time>2014-06-12T04:45:27Z</time>
      </trkpt>
      <trkpt lat="44.33152" lon="2.59968">
        <ele>621.1491699</ele>
        <time>2014-06-12T04:45:32Z</time>
      </trkpt>
      <trkpt lat="44.33152" lon="2.59982">
        <ele>619.7070313</ele>
        <time>2014-06-12T04:45:36Z</time>
      </trkpt>
      <trkpt lat="44.33154" lon="2.59997">
        <ele>619.2263184</ele>
        <time>2014-06-12T04:45:40Z</time>
      </trkpt>
      <trkpt lat="44.33158" lon="2.60011">
        <ele>619.2263184</ele>
        <time>2014-06-12T04:45:44Z</time>
      </trkpt>
      <trkpt lat="44.33165" lon="2.60034">
        <ele>619.2263184</ele>
        <time>2014-06-12T04:45:51Z</time>
      </trkpt>
      <trkpt lat="44.33173" lon="2.60047">
        <ele>619.2263184</ele>
        <time>2014-06-12T04:45:56Z</time>
      </trkpt>
      <trkpt lat="44.33177" lon="2.6004">
        <ele>619.2263184</ele>
        <time>2014-06-12T04:46:00Z</time>
      </trkpt>
      <trkpt lat="44.33178" lon="2.60043">
        <ele>618.7456055</ele>
        <time>2014-06-12T04:46:03Z</time>
      </trkpt>
      <trkpt lat="44.33185" lon="2.60035">
        <ele>616.822998</ele>
        <time>2014-06-12T04:46:08Z</time>
      </trkpt>
      <trkpt lat="44.33188" lon="2.60031">
        <ele>616.3422852</ele>
        <time>2014-06-12T04:46:10Z</time>
      </trkpt>
      <trkpt lat="44.33194" lon="2.60016">
        <ele>614.4196777</ele>
        <time>2014-06-12T04:46:15Z</time>
      </trkpt>
      <trkpt lat="44.33201" lon="2.60008">
        <ele>612.9777832</ele>
        <time>2014-06-12T04:46:19Z</time>
      </trkpt>
      <trkpt lat="44.33209" lon="2.6">
        <ele>610.5744629</ele>
        <time>2014-06-12T04:46:24Z</time>
      </trkpt>
      <trkpt lat="44.33211" lon="2.59998">
        <ele>610.09375</ele>
        <time>2014-06-12T04:46:25Z</time>
      </trkpt>
      <trkpt lat="44.33223" lon="2.59981">
        <ele>607.6906738</ele>
        <time>2014-06-12T04:46:31Z</time>
      </trkpt>
      <trkpt lat="44.33232" lon="2.59967">
        <ele>605.7680664</ele>
        <time>2014-06-12T04:46:36Z</time>
      </trkpt>
      <trkpt lat="44.33242" lon="2.59952">
        <ele>603.8452148</ele>
        <time>2014-06-12T04:46:41Z</time>
      </trkpt>
      <trkpt lat="44.33252" lon="2.59939">
        <ele>601.9226074</ele>
        <time>2014-06-12T04:46:46Z</time>
      </trkpt>
      <trkpt lat="44.33263" lon="2.59928">
        <ele>600.9611816</ele>
        <time>2014-06-12T04:46:51Z</time>
      </trkpt>
      <trkpt lat="44.33274" lon="2.59917">
        <ele>600.9611816</ele>
        <time>2014-06-12T04:46:56Z</time>
      </trkpt>
      <trkpt lat="44.33285" lon="2.59907">
        <ele>601.4418945</ele>
        <time>2014-06-12T04:47:01Z</time>
      </trkpt>
      <trkpt lat="44.33295" lon="2.59905">
        <ele>600.4807129</ele>
        <time>2014-06-12T04:47:07Z</time>
      </trkpt>
      <trkpt lat="44.33302" lon="2.59905">
        <ele>600.9611816</ele>
        <time>2014-06-12T04:47:10Z</time>
      </trkpt>
      <trkpt lat="44.33305" lon="2.59911">
        <ele>601.4418945</ele>
        <time>2014-06-12T04:47:13Z</time>
      </trkpt>
      <trkpt lat="44.33307" lon="2.59915">
        <ele>601.4418945</ele>
        <time>2014-06-12T04:47:19Z</time>
      </trkpt>
      <trkpt lat="44.3331" lon="2.59921">
        <ele>602.4030762</ele>
        <time>2014-06-12T04:47:26Z</time>
      </trkpt>
      <trkpt lat="44.33316" lon="2.5993">
        <ele>601.9226074</ele>
        <time>2014-06-12T04:47:34Z</time>
      </trkpt>
      <trkpt lat="44.33325" lon="2.59933">
        <ele>603.364502</ele>
        <time>2014-06-12T04:47:40Z</time>
      </trkpt>
      <trkpt lat="44.33333" lon="2.59925">
        <ele>604.8066406</ele>
        <time>2014-06-12T04:47:45Z</time>
      </trkpt>
      <trkpt lat="44.33336" lon="2.59921">
        <ele>604.8066406</ele>
        <time>2014-06-12T04:47:49Z</time>
      </trkpt>
      <trkpt lat="44.33341" lon="2.59912">
        <ele>604.8066406</ele>
        <time>2014-06-12T04:47:59Z</time>
      </trkpt>
      <trkpt lat="44.33347" lon="2.59902">
        <ele>601.9226074</ele>
        <time>2014-06-12T04:48:06Z</time>
      </trkpt>
      <trkpt lat="44.33355" lon="2.5989">
        <ele>600</ele>
        <time>2014-06-12T04:48:11Z</time>
      </trkpt>
      <trkpt lat="44.33362" lon="2.59877">
        <ele>597.1159668</ele>
        <time>2014-06-12T04:48:16Z</time>
      </trkpt>
      <trkpt lat="44.33368" lon="2.59859">
        <ele>594.7126465</ele>
        <time>2014-06-12T04:48:21Z</time>
      </trkpt>
      <trkpt lat="44.33374" lon="2.59841">
        <ele>593.270752</ele>
        <time>2014-06-12T04:48:26Z</time>
      </trkpt>
      <trkpt lat="44.33382" lon="2.59824">
        <ele>589.90625</ele>
        <time>2014-06-12T04:48:32Z</time>
      </trkpt>
      <trkpt lat="44.33389" lon="2.5981">
        <ele>588.9450684</ele>
        <time>2014-06-12T04:48:38Z</time>
      </trkpt>
      <trkpt lat="44.33395" lon="2.598">
        <ele>588.4643555</ele>
        <time>2014-06-12T04:48:43Z</time>
      </trkpt>
      <trkpt lat="44.334" lon="2.59785">
        <ele>587.5026855</ele>
        <time>2014-06-12T04:48:48Z</time>
      </trkpt>
      <trkpt lat="44.33399" lon="2.59779">
        <ele>587.9833984</ele>
        <time>2014-06-12T04:48:50Z</time>
      </trkpt>
      <trkpt lat="44.33395" lon="2.59765">
        <ele>589.90625</ele>
        <time>2014-06-12T04:48:55Z</time>
      </trkpt>
      <trkpt lat="44.33392" lon="2.5976">
        <ele>590.3869629</ele>
        <time>2014-06-12T04:48:59Z</time>
      </trkpt>
      <trkpt lat="44.33393" lon="2.59753">
        <ele>591.3481445</ele>
        <time>2014-06-12T04:49:03Z</time>
      </trkpt>
      <trkpt lat="44.33395" lon="2.59747">
        <ele>590.8674316</ele>
        <time>2014-06-12T04:49:09Z</time>
      </trkpt>
      <trkpt lat="44.33395" lon="2.5975">
        <ele>590.8674316</ele>
        <time>2014-06-12T04:49:14Z</time>
      </trkpt>
      <trkpt lat="44.33394" lon="2.59754">
        <ele>590.8674316</ele>
        <time>2014-06-12T04:49:20Z</time>
      </trkpt>
      <trkpt lat="44.33395" lon="2.59746">
        <ele>590.8674316</ele>
        <time>2014-06-12T04:49:26Z</time>
      </trkpt>
      <trkpt lat="44.33398" lon="2.59732">
        <ele>591.8288574</ele>
        <time>2014-06-12T04:49:31Z</time>
      </trkpt>
      <trkpt lat="44.33401" lon="2.59723">
        <ele>592.3095703</ele>
        <time>2014-06-12T04:49:37Z</time>
      </trkpt>
      <trkpt lat="44.33402" lon="2.5972">
        <ele>593.270752</ele>
        <time>2014-06-12T04:49:44Z</time>
      </trkpt>
      <trkpt lat="44.33406" lon="2.59724">
        <ele>591.8288574</ele>
        <time>2014-06-12T04:49:53Z</time>
      </trkpt>
      <trkpt lat="44.33411" lon="2.59733">
        <ele>589.4255371</ele>
        <time>2014-06-12T04:49:58Z</time>
      </trkpt>
      <trkpt lat="44.33417" lon="2.59738">
        <ele>587.5026855</ele>
        <time>2014-06-12T04:50:02Z</time>
      </trkpt>
      <trkpt lat="44.33421" lon="2.59741">
        <ele>586.5415039</ele>
        <time>2014-06-12T04:50:05Z</time>
      </trkpt>
      <trkpt lat="44.33429" lon="2.59738">
        <ele>584.6188965</ele>
        <time>2014-06-12T04:50:12Z</time>
      </trkpt>
      <trkpt lat="44.33435" lon="2.59735">
        <ele>586.060791</ele>
        <time>2014-06-12T04:50:16Z</time>
      </trkpt>
      <trkpt lat="44.33438" lon="2.59733">
        <ele>586.5415039</ele>
        <time>2014-06-12T04:50:19Z</time>
      </trkpt>
      <trkpt lat="44.33445" lon="2.59727">
        <ele>587.0219727</ele>
        <time>2014-06-12T04:50:25Z</time>
      </trkpt>
      <trkpt lat="44.33449" lon="2.59718">
        <ele>585.5800781</ele>
        <time>2014-06-12T04:50:29Z</time>
      </trkpt>
      <trkpt lat="44.33457" lon="2.59719">
        <ele>583.6574707</ele>
        <time>2014-06-12T04:50:33Z</time>
      </trkpt>
      <trkpt lat="44.33459" lon="2.59719">
        <ele>581.7348633</ele>
        <time>2014-06-12T04:50:36Z</time>
      </trkpt>
      <trkpt lat="44.33469" lon="2.5971">
        <ele>578.3703613</ele>
        <time>2014-06-12T04:50:42Z</time>
      </trkpt>
      <trkpt lat="44.33471" lon="2.59709">
        <ele>577.8896484</ele>
        <time>2014-06-12T04:50:43Z</time>
      </trkpt>
      <trkpt lat="44.33468" lon="2.59703">
        <ele>574.5251465</ele>
        <time>2014-06-12T04:50:48Z</time>
      </trkpt>
      <trkpt lat="44.33468" lon="2.59692">
        <ele>569.7185059</ele>
        <time>2014-06-12T04:50:52Z</time>
      </trkpt>
      <trkpt lat="44.33474" lon="2.59682">
        <ele>564.4311523</ele>
        <time>2014-06-12T04:50:57Z</time>
      </trkpt>
      <trkpt lat="44.33476" lon="2.59675">
        <ele>564.4311523</ele>
        <time>2014-06-12T04:51:03Z</time>
      </trkpt>
      <trkpt lat="44.33477" lon="2.59674">
        <ele>565.873291</ele>
        <time>2014-06-12T04:51:06Z</time>
      </trkpt>
      <trkpt lat="44.33482" lon="2.59669">
        <ele>565.873291</ele>
        <time>2014-06-12T04:51:11Z</time>
      </trkpt>
      <trkpt lat="44.33486" lon="2.59665">
        <ele>567.3151855</ele>
        <time>2014-06-12T04:51:14Z</time>
      </trkpt>
      <trkpt lat="44.33495" lon="2.59657">
        <ele>561.0666504</ele>
        <time>2014-06-12T04:51:20Z</time>
      </trkpt>
      <trkpt lat="44.33495" lon="2.59647">
        <ele>559.6247559</ele>
        <time>2014-06-12T04:51:24Z</time>
      </trkpt>
      <trkpt lat="44.33496" lon="2.59635">
        <ele>556.2600098</ele>
        <time>2014-06-12T04:51:29Z</time>
      </trkpt>
      <trkpt lat="44.33495" lon="2.5963">
        <ele>555.7792969</ele>
        <time>2014-06-12T04:51:31Z</time>
      </trkpt>
      <trkpt lat="44.33496" lon="2.59618">
        <ele>549.5307617</ele>
        <time>2014-06-12T04:51:36Z</time>
      </trkpt>
      <trkpt lat="44.33499" lon="2.59598">
        <ele>542.8015137</ele>
        <time>2014-06-12T04:51:43Z</time>
      </trkpt>
      <trkpt lat="44.33499" lon="2.59578">
        <ele>543.2821045</ele>
        <time>2014-06-12T04:51:49Z</time>
      </trkpt>
      <trkpt lat="44.33499" lon="2.59573">
        <ele>542.8015137</ele>
        <time>2014-06-12T04:51:51Z</time>
      </trkpt>
      <trkpt lat="44.33497" lon="2.59566">
        <ele>543.7628174</ele>
        <time>2014-06-12T04:51:54Z</time>
      </trkpt>
      <trkpt lat="44.33492" lon="2.59557">
        <ele>542.3209229</ele>
        <time>2014-06-12T04:51:59Z</time>
      </trkpt>
      <trkpt lat="44.33491" lon="2.59555">
        <ele>541.84021</ele>
        <time>2014-06-12T04:52:00Z</time>
      </trkpt>
      <trkpt lat="44.33482" lon="2.59533">
        <ele>538.475708</ele>
        <time>2014-06-12T04:52:06Z</time>
      </trkpt>
      <trkpt lat="44.33479" lon="2.59522">
        <ele>536.5531006</ele>
        <time>2014-06-12T04:52:11Z</time>
      </trkpt>
      <trkpt lat="44.33472" lon="2.59508">
        <ele>538.475708</ele>
        <time>2014-06-12T04:52:16Z</time>
      </trkpt>
      <trkpt lat="44.33469" lon="2.595">
        <ele>543.2821045</ele>
        <time>2014-06-12T04:52:20Z</time>
      </trkpt>
      <trkpt lat="44.33465" lon="2.59491">
        <ele>544.2436523</ele>
        <time>2014-06-12T04:52:25Z</time>
      </trkpt>
      <trkpt lat="44.33464" lon="2.5949">
        <ele>543.7628174</ele>
        <time>2014-06-12T04:52:26Z</time>
      </trkpt>
      <trkpt lat="44.33461" lon="2.59481">
        <ele>543.2821045</ele>
        <time>2014-06-12T04:52:30Z</time>
      </trkpt>
      <trkpt lat="44.33456" lon="2.59468">
        <ele>544.2436523</ele>
        <time>2014-06-12T04:52:35Z</time>
      </trkpt>
      <trkpt lat="44.33451" lon="2.59454">
        <ele>550.0114746</ele>
        <time>2014-06-12T04:52:40Z</time>
      </trkpt>
      <trkpt lat="44.3345" lon="2.59451">
        <ele>550.9726563</ele>
        <time>2014-06-12T04:52:42Z</time>
      </trkpt>
      <trkpt lat="44.33448" lon="2.59442">
        <ele>553.3759766</ele>
        <time>2014-06-12T04:52:46Z</time>
      </trkpt>
      <trkpt lat="44.33445" lon="2.59436">
        <ele>556.2600098</ele>
        <time>2014-06-12T04:52:48Z</time>
      </trkpt>
      <trkpt lat="44.33439" lon="2.59418">
        <ele>558.1828613</ele>
        <time>2014-06-12T04:52:54Z</time>
      </trkpt>
      <trkpt lat="44.33439" lon="2.59415">
        <ele>557.7021484</ele>
        <time>2014-06-12T04:52:55Z</time>
      </trkpt>
      <trkpt lat="44.33439" lon="2.59401">
        <ele>554.8178711</ele>
        <time>2014-06-12T04:53:01Z</time>
      </trkpt>
      <trkpt lat="44.33439" lon="2.59398">
        <ele>554.3374023</ele>
        <time>2014-06-12T04:53:02Z</time>
      </trkpt>
      <trkpt lat="44.33435" lon="2.5938">
        <ele>556.7407227</ele>
        <time>2014-06-12T04:53:08Z</time>
      </trkpt>
      <trkpt lat="44.33433" lon="2.59379">
        <ele>555.7792969</ele>
        <time>2014-06-12T04:53:10Z</time>
      </trkpt>
      <trkpt lat="44.33431" lon="2.59366">
        <ele>550.9726563</ele>
        <time>2014-06-12T04:53:16Z</time>
      </trkpt>
      <trkpt lat="44.33429" lon="2.59351">
        <ele>548.0888672</ele>
        <time>2014-06-12T04:53:22Z</time>
      </trkpt>
      <trkpt lat="44.33428" lon="2.59346">
        <ele>550.4921875</ele>
        <time>2014-06-12T04:53:23Z</time>
      </trkpt>
      <trkpt lat="44.33427" lon="2.59329">
        <ele>546.1662598</ele>
        <time>2014-06-12T04:53:29Z</time>
      </trkpt>
      <trkpt lat="44.3343" lon="2.59315">
        <ele>541.84021</ele>
        <time>2014-06-12T04:53:34Z</time>
      </trkpt>
      <trkpt lat="44.33432" lon="2.593">
        <ele>537.5142822</ele>
        <time>2014-06-12T04:53:40Z</time>
      </trkpt>
      <trkpt lat="44.33433" lon="2.59298">
        <ele>537.0336914</ele>
        <time>2014-06-12T04:53:41Z</time>
      </trkpt>
      <trkpt lat="44.33436" lon="2.59286">
        <ele>534.1496582</ele>
        <time>2014-06-12T04:53:47Z</time>
      </trkpt>
      <trkpt lat="44.33434" lon="2.59268">
        <ele>532.2270508</ele>
        <time>2014-06-12T04:53:52Z</time>
      </trkpt>
      <trkpt lat="44.3344" lon="2.59252">
        <ele>530.3044434</ele>
        <time>2014-06-12T04:53:57Z</time>
      </trkpt>
      <trkpt lat="44.33447" lon="2.59238">
        <ele>527.901001</ele>
        <time>2014-06-12T04:54:00Z</time>
      </trkpt>
      <trkpt lat="44.33449" lon="2.59215">
        <ele>527.4204102</ele>
        <time>2014-06-12T04:54:06Z</time>
      </trkpt>
      <trkpt lat="44.3345" lon="2.592">
        <ele>525.9783936</ele>
        <time>2014-06-12T04:54:10Z</time>
      </trkpt>
      <trkpt lat="44.33443" lon="2.59178">
        <ele>518.2878418</ele>
        <time>2014-06-12T04:54:17Z</time>
      </trkpt>
      <trkpt lat="44.33443" lon="2.59175">
        <ele>517.3266602</ele>
        <time>2014-06-12T04:54:18Z</time>
      </trkpt>
      <trkpt lat="44.3345" lon="2.5916">
        <ele>511.0780029</ele>
        <time>2014-06-12T04:54:23Z</time>
      </trkpt>
      <trkpt lat="44.33451" lon="2.59147">
        <ele>506.7520752</ele>
        <time>2014-06-12T04:54:27Z</time>
      </trkpt>
      <trkpt lat="44.33452" lon="2.59143">
        <ele>505.3101807</ele>
        <time>2014-06-12T04:54:28Z</time>
      </trkpt>
      <trkpt lat="44.33451" lon="2.59117">
        <ele>516.8459473</ele>
        <time>2014-06-12T04:54:34Z</time>
      </trkpt>
      <trkpt lat="44.33453" lon="2.59093">
        <ele>523.0946045</ele>
        <time>2014-06-12T04:54:40Z</time>
      </trkpt>
      <trkpt lat="44.33453" lon="2.59077">
        <ele>526.4591064</ele>
        <time>2014-06-12T04:54:45Z</time>
      </trkpt>
      <trkpt lat="44.33451" lon="2.59062">
        <ele>530.3044434</ele>
        <time>2014-06-12T04:54:49Z</time>
      </trkpt>
      <trkpt lat="44.33449" lon="2.59048">
        <ele>531.7463379</ele>
        <time>2014-06-12T04:54:53Z</time>
      </trkpt>
      <trkpt lat="44.3345" lon="2.59042">
        <ele>530.3044434</ele>
        <time>2014-06-12T04:54:55Z</time>
      </trkpt>
      <trkpt lat="44.33456" lon="2.59024">
        <ele>532.2270508</ele>
        <time>2014-06-12T04:55:02Z</time>
      </trkpt>
      <trkpt lat="44.33464" lon="2.59005">
        <ele>534.1496582</ele>
        <time>2014-06-12T04:55:07Z</time>
      </trkpt>
      <trkpt lat="44.33476" lon="2.58991">
        <ele>534.6303711</ele>
        <time>2014-06-12T04:55:13Z</time>
      </trkpt>
      <trkpt lat="44.33484" lon="2.58977">
        <ele>533.1883545</ele>
        <time>2014-06-12T04:55:18Z</time>
      </trkpt>
      <trkpt lat="44.33491" lon="2.58968">
        <ele>534.1496582</ele>
        <time>2014-06-12T04:55:21Z</time>
      </trkpt>
      <trkpt lat="44.33497" lon="2.58954">
        <ele>534.1496582</ele>
        <time>2014-06-12T04:55:25Z</time>
      </trkpt>
      <trkpt lat="44.33503" lon="2.5893">
        <ele>536.5531006</ele>
        <time>2014-06-12T04:55:32Z</time>
      </trkpt>
      <trkpt lat="44.33508" lon="2.58908">
        <ele>537.5142822</ele>
        <time>2014-06-12T04:55:38Z</time>
      </trkpt>
      <trkpt lat="44.33515" lon="2.58893">
        <ele>537.0336914</ele>
        <time>2014-06-12T04:55:44Z</time>
      </trkpt>
      <trkpt lat="44.33516" lon="2.5889">
        <ele>536.5531006</ele>
        <time>2014-06-12T04:55:45Z</time>
      </trkpt>
      <trkpt lat="44.33522" lon="2.5888">
        <ele>539.9176025</ele>
        <time>2014-06-12T04:55:50Z</time>
      </trkpt>
      <trkpt lat="44.33536" lon="2.5888">
        <ele>544.2436523</ele>
        <time>2014-06-12T04:55:56Z</time>
      </trkpt>
      <trkpt lat="44.33548" lon="2.58866">
        <ele>548.0888672</ele>
        <time>2014-06-12T04:56:02Z</time>
      </trkpt>
      <trkpt lat="44.33552" lon="2.58864">
        <ele>552.8952637</ele>
        <time>2014-06-12T04:56:06Z</time>
      </trkpt>
      <trkpt lat="44.33551" lon="2.58867">
        <ele>554.3374023</ele>
        <time>2014-06-12T04:56:07Z</time>
      </trkpt>
      <trkpt lat="44.33542" lon="2.58884">
        <ele>558.6633301</ele>
        <time>2014-06-12T04:56:13Z</time>
      </trkpt>
      <trkpt lat="44.33535" lon="2.589">
        <ele>561.5473633</ele>
        <time>2014-06-12T04:56:18Z</time>
      </trkpt>
      <trkpt lat="44.3353" lon="2.58915">
        <ele>562.0280762</ele>
        <time>2014-06-12T04:56:23Z</time>
      </trkpt>
      <trkpt lat="44.33523" lon="2.58928">
        <ele>562.5085449</ele>
        <time>2014-06-12T04:56:27Z</time>
      </trkpt>
      <trkpt lat="44.33518" lon="2.58942">
        <ele>561.5473633</ele>
        <time>2014-06-12T04:56:32Z</time>
      </trkpt>
      <trkpt lat="44.3351" lon="2.58959">
        <ele>561.0666504</ele>
        <time>2014-06-12T04:56:37Z</time>
      </trkpt>
      <trkpt lat="44.33502" lon="2.58978">
        <ele>561.5473633</ele>
        <time>2014-06-12T04:56:43Z</time>
      </trkpt>
      <trkpt lat="44.33493" lon="2.58995">
        <ele>562.5085449</ele>
        <time>2014-06-12T04:56:48Z</time>
      </trkpt>
      <trkpt lat="44.33491" lon="2.58998">
        <ele>562.5085449</ele>
        <time>2014-06-12T04:56:49Z</time>
      </trkpt>
      <trkpt lat="44.33482" lon="2.59027">
        <ele>566.8344727</ele>
        <time>2014-06-12T04:56:57Z</time>
      </trkpt>
      <trkpt lat="44.33478" lon="2.59046">
        <ele>567.7956543</ele>
        <time>2014-06-12T04:57:02Z</time>
      </trkpt>
      <trkpt lat="44.33477" lon="2.59063">
        <ele>569.237793</ele>
        <time>2014-06-12T04:57:07Z</time>
      </trkpt>
      <trkpt lat="44.33476" lon="2.59081">
        <ele>569.237793</ele>
        <time>2014-06-12T04:57:12Z</time>
      </trkpt>
      <trkpt lat="44.33476" lon="2.59097">
        <ele>569.237793</ele>
        <time>2014-06-12T04:57:16Z</time>
      </trkpt>
      <trkpt lat="44.33475" lon="2.59112">
        <ele>567.7956543</ele>
        <time>2014-06-12T04:57:20Z</time>
      </trkpt>
      <trkpt lat="44.33475" lon="2.59132">
        <ele>566.8344727</ele>
        <time>2014-06-12T04:57:25Z</time>
      </trkpt>
      <trkpt lat="44.33474" lon="2.59142">
        <ele>566.3537598</ele>
        <time>2014-06-12T04:57:28Z</time>
      </trkpt>
      <trkpt lat="44.33471" lon="2.5916">
        <ele>565.873291</ele>
        <time>2014-06-12T04:57:33Z</time>
      </trkpt>
      <trkpt lat="44.3347" lon="2.5917">
        <ele>566.3537598</ele>
        <time>2014-06-12T04:57:36Z</time>
      </trkpt>
      <trkpt lat="44.33471" lon="2.59192">
        <ele>566.3537598</ele>
        <time>2014-06-12T04:57:42Z</time>
      </trkpt>
      <trkpt lat="44.33473" lon="2.59214">
        <ele>566.8344727</ele>
        <time>2014-06-12T04:57:48Z</time>
      </trkpt>
      <trkpt lat="44.33475" lon="2.59233">
        <ele>567.3151855</ele>
        <time>2014-06-12T04:57:53Z</time>
      </trkpt>
      <trkpt lat="44.33478" lon="2.59253">
        <ele>566.8344727</ele>
        <time>2014-06-12T04:57:58Z</time>
      </trkpt>
      <trkpt lat="44.33479" lon="2.59269">
        <ele>565.3925781</ele>
        <time>2014-06-12T04:58:02Z</time>
      </trkpt>
      <trkpt lat="44.33481" lon="2.59291">
        <ele>563.9504395</ele>
        <time>2014-06-12T04:58:08Z</time>
      </trkpt>
      <trkpt lat="44.33484" lon="2.59313">
        <ele>563.9504395</ele>
        <time>2014-06-12T04:58:14Z</time>
      </trkpt>
      <trkpt lat="44.33486" lon="2.59341">
        <ele>563.9504395</ele>
        <time>2014-06-12T04:58:21Z</time>
      </trkpt>
      <trkpt lat="44.33485" lon="2.5936">
        <ele>564.9118652</ele>
        <time>2014-06-12T04:58:26Z</time>
      </trkpt>
      <trkpt lat="44.33484" lon="2.59383">
        <ele>565.873291</ele>
        <time>2014-06-12T04:58:32Z</time>
      </trkpt>
      <trkpt lat="44.33484" lon="2.59401">
        <ele>566.8344727</ele>
        <time>2014-06-12T04:58:37Z</time>
      </trkpt>
      <trkpt lat="44.33484" lon="2.59416">
        <ele>566.8344727</ele>
        <time>2014-06-12T04:58:41Z</time>
      </trkpt>
      <trkpt lat="44.33483" lon="2.59433">
        <ele>565.3925781</ele>
        <time>2014-06-12T04:58:46Z</time>
      </trkpt>
      <trkpt lat="44.33484" lon="2.59454">
        <ele>563.4699707</ele>
        <time>2014-06-12T04:58:52Z</time>
      </trkpt>
      <trkpt lat="44.33488" lon="2.59471">
        <ele>563.4699707</ele>
        <time>2014-06-12T04:58:57Z</time>
      </trkpt>
      <trkpt lat="44.33494" lon="2.59487">
        <ele>563.4699707</ele>
        <time>2014-06-12T04:59:02Z</time>
      </trkpt>
      <trkpt lat="44.33502" lon="2.595">
        <ele>563.9504395</ele>
        <time>2014-06-12T04:59:06Z</time>
      </trkpt>
      <trkpt lat="44.33509" lon="2.59522">
        <ele>566.3537598</ele>
        <time>2014-06-12T04:59:12Z</time>
      </trkpt>
      <trkpt lat="44.33516" lon="2.59543">
        <ele>568.2763672</ele>
        <time>2014-06-12T04:59:18Z</time>
      </trkpt>
      <trkpt lat="44.33519" lon="2.59561">
        <ele>568.7570801</ele>
        <time>2014-06-12T04:59:23Z</time>
      </trkpt>
      <trkpt lat="44.33522" lon="2.59583">
        <ele>570.1989746</ele>
        <time>2014-06-12T04:59:29Z</time>
      </trkpt>
      <trkpt lat="44.33524" lon="2.59603">
        <ele>571.6408691</ele>
        <time>2014-06-12T04:59:35Z</time>
      </trkpt>
      <trkpt lat="44.33527" lon="2.59624">
        <ele>572.1218262</ele>
        <time>2014-06-12T04:59:41Z</time>
      </trkpt>
      <trkpt lat="44.33532" lon="2.59645">
        <ele>573.5639648</ele>
        <time>2014-06-12T04:59:47Z</time>
      </trkpt>
      <trkpt lat="44.33537" lon="2.59661">
        <ele>574.5251465</ele>
        <time>2014-06-12T04:59:52Z</time>
      </trkpt>
      <trkpt lat="44.33544" lon="2.59677">
        <ele>575.967041</ele>
        <time>2014-06-12T04:59:57Z</time>
      </trkpt>
      <trkpt lat="44.33556" lon="2.59695">
        <ele>578.3703613</ele>
        <time>2014-06-12T05:00:04Z</time>
      </trkpt>
      <trkpt lat="44.33565" lon="2.59709">
        <ele>581.2543945</ele>
        <time>2014-06-12T05:00:09Z</time>
      </trkpt>
      <trkpt lat="44.33572" lon="2.59726">
        <ele>580.7736816</ele>
        <time>2014-06-12T05:00:15Z</time>
      </trkpt>
      <trkpt lat="44.33578" lon="2.59741">
        <ele>579.331543</ele>
        <time>2014-06-12T05:00:20Z</time>
      </trkpt>
      <trkpt lat="44.33586" lon="2.59757">
        <ele>579.8122559</ele>
        <time>2014-06-12T05:00:25Z</time>
      </trkpt>
      <trkpt lat="44.33594" lon="2.59777">
        <ele>579.331543</ele>
        <time>2014-06-12T05:00:31Z</time>
      </trkpt>
      <trkpt lat="44.33598" lon="2.59796">
        <ele>580.7736816</ele>
        <time>2014-06-12T05:00:36Z</time>
      </trkpt>
      <trkpt lat="44.336" lon="2.59817">
        <ele>583.1767578</ele>
        <time>2014-06-12T05:00:42Z</time>
      </trkpt>
      <trkpt lat="44.336" lon="2.59837">
        <ele>583.1767578</ele>
        <time>2014-06-12T05:00:47Z</time>
      </trkpt>
      <trkpt lat="44.33598" lon="2.59859">
        <ele>584.1381836</ele>
        <time>2014-06-12T05:00:53Z</time>
      </trkpt>
      <trkpt lat="44.33597" lon="2.59877">
        <ele>583.6574707</ele>
        <time>2014-06-12T05:00:58Z</time>
      </trkpt>
      <trkpt lat="44.33595" lon="2.59892">
        <ele>583.6574707</ele>
        <time>2014-06-12T05:01:02Z</time>
      </trkpt>
      <trkpt lat="44.33594" lon="2.59906">
        <ele>584.1381836</ele>
        <time>2014-06-12T05:01:06Z</time>
      </trkpt>
      <trkpt lat="44.33591" lon="2.59924">
        <ele>583.6574707</ele>
        <time>2014-06-12T05:01:11Z</time>
      </trkpt>
      <trkpt lat="44.3359" lon="2.59947">
        <ele>583.6574707</ele>
        <time>2014-06-12T05:01:17Z</time>
      </trkpt>
      <trkpt lat="44.33588" lon="2.59963">
        <ele>585.0996094</ele>
        <time>2014-06-12T05:01:21Z</time>
      </trkpt>
      <trkpt lat="44.33587" lon="2.59977">
        <ele>586.5415039</ele>
        <time>2014-06-12T05:01:25Z</time>
      </trkpt>
      <trkpt lat="44.33587" lon="2.59995">
        <ele>587.5026855</ele>
        <time>2014-06-12T05:01:30Z</time>
      </trkpt>
      <trkpt lat="44.33589" lon="2.60017">
        <ele>588.4643555</ele>
        <time>2014-06-12T05:01:36Z</time>
      </trkpt>
      <trkpt lat="44.33591" lon="2.60033">
        <ele>587.0219727</ele>
        <time>2014-06-12T05:01:41Z</time>
      </trkpt>
      <trkpt lat="44.33595" lon="2.6005">
        <ele>587.0219727</ele>
        <time>2014-06-12T05:01:46Z</time>
      </trkpt>
      <trkpt lat="44.33599" lon="2.60066">
        <ele>587.0219727</ele>
        <time>2014-06-12T05:01:51Z</time>
      </trkpt>
      <trkpt lat="44.33604" lon="2.60084">
        <ele>586.5415039</ele>
        <time>2014-06-12T05:01:56Z</time>
      </trkpt>
      <trkpt lat="44.33612" lon="2.601">
        <ele>587.9833984</ele>
        <time>2014-06-12T05:02:01Z</time>
      </trkpt>
      <trkpt lat="44.33618" lon="2.6011">
        <ele>587.9833984</ele>
        <time>2014-06-12T05:02:05Z</time>
      </trkpt>
      <trkpt lat="44.33626" lon="2.60125">
        <ele>587.0219727</ele>
        <time>2014-06-12T05:02:10Z</time>
      </trkpt>
      <trkpt lat="44.33635" lon="2.60143">
        <ele>585.5800781</ele>
        <time>2014-06-12T05:02:16Z</time>
      </trkpt>
      <trkpt lat="44.33641" lon="2.6016">
        <ele>584.6188965</ele>
        <time>2014-06-12T05:02:21Z</time>
      </trkpt>
      <trkpt lat="44.33647" lon="2.60177">
        <ele>585.0996094</ele>
        <time>2014-06-12T05:02:26Z</time>
      </trkpt>
      <trkpt lat="44.33653" lon="2.60196">
        <ele>585.5800781</ele>
        <time>2014-06-12T05:02:31Z</time>
      </trkpt>
      <trkpt lat="44.33657" lon="2.60214">
        <ele>586.5415039</ele>
        <time>2014-06-12T05:02:36Z</time>
      </trkpt>
      <trkpt lat="44.3366" lon="2.60233">
        <ele>587.5026855</ele>
        <time>2014-06-12T05:02:41Z</time>
      </trkpt>
      <trkpt lat="44.33662" lon="2.60236">
        <ele>587.9833984</ele>
        <time>2014-06-12T05:02:42Z</time>
      </trkpt>
      <trkpt lat="44.33666" lon="2.60257">
        <ele>587.9833984</ele>
        <time>2014-06-12T05:02:48Z</time>
      </trkpt>
      <trkpt lat="44.33669" lon="2.60277">
        <ele>587.9833984</ele>
        <time>2014-06-12T05:02:53Z</time>
      </trkpt>
      <trkpt lat="44.33676" lon="2.60299">
        <ele>588.4643555</ele>
        <time>2014-06-12T05:02:59Z</time>
      </trkpt>
      <trkpt lat="44.3368" lon="2.60313">
        <ele>588.4643555</ele>
        <time>2014-06-12T05:03:03Z</time>
      </trkpt>
      <trkpt lat="44.33679" lon="2.60337">
        <ele>588.9450684</ele>
        <time>2014-06-12T05:03:09Z</time>
      </trkpt>
      <trkpt lat="44.33676" lon="2.6036">
        <ele>587.5026855</ele>
        <time>2014-06-12T05:03:15Z</time>
      </trkpt>
      <trkpt lat="44.33672" lon="2.60381">
        <ele>587.0219727</ele>
        <time>2014-06-12T05:03:21Z</time>
      </trkpt>
      <trkpt lat="44.33667" lon="2.60402">
        <ele>587.9833984</ele>
        <time>2014-06-12T05:03:27Z</time>
      </trkpt>
      <trkpt lat="44.33663" lon="2.60421">
        <ele>588.9450684</ele>
        <time>2014-06-12T05:03:33Z</time>
      </trkpt>
      <trkpt lat="44.3366" lon="2.60443">
        <ele>588.9450684</ele>
        <time>2014-06-12T05:03:39Z</time>
      </trkpt>
      <trkpt lat="44.33657" lon="2.60462">
        <ele>588.9450684</ele>
        <time>2014-06-12T05:03:44Z</time>
      </trkpt>
      <trkpt lat="44.33654" lon="2.60475">
        <ele>588.9450684</ele>
        <time>2014-06-12T05:03:48Z</time>
      </trkpt>
      <trkpt lat="44.33649" lon="2.60491">
        <ele>589.90625</ele>
        <time>2014-06-12T05:03:53Z</time>
      </trkpt>
      <trkpt lat="44.33644" lon="2.60507">
        <ele>589.90625</ele>
        <time>2014-06-12T05:03:58Z</time>
      </trkpt>
      <trkpt lat="44.33635" lon="2.60523">
        <ele>590.3869629</ele>
        <time>2014-06-12T05:04:03Z</time>
      </trkpt>
      <trkpt lat="44.33627" lon="2.60538">
        <ele>590.3869629</ele>
        <time>2014-06-12T05:04:08Z</time>
      </trkpt>
      <trkpt lat="44.33619" lon="2.60552">
        <ele>591.3481445</ele>
        <time>2014-06-12T05:04:13Z</time>
      </trkpt>
      <trkpt lat="44.33612" lon="2.60564">
        <ele>590.8674316</ele>
        <time>2014-06-12T05:04:17Z</time>
      </trkpt>
      <trkpt lat="44.33609" lon="2.60579">
        <ele>591.8288574</ele>
        <time>2014-06-12T05:04:21Z</time>
      </trkpt>
      <trkpt lat="44.33605" lon="2.60594">
        <ele>592.7902832</ele>
        <time>2014-06-12T05:04:25Z</time>
      </trkpt>
      <trkpt lat="44.33601" lon="2.60608">
        <ele>592.3095703</ele>
        <time>2014-06-12T05:04:30Z</time>
      </trkpt>
      <trkpt lat="44.33597" lon="2.60622">
        <ele>592.3095703</ele>
        <time>2014-06-12T05:04:34Z</time>
      </trkpt>
      <trkpt lat="44.33595" lon="2.60639">
        <ele>591.3481445</ele>
        <time>2014-06-12T05:04:39Z</time>
      </trkpt>
      <trkpt lat="44.33592" lon="2.60656">
        <ele>590.8674316</ele>
        <time>2014-06-12T05:04:44Z</time>
      </trkpt>
      <trkpt lat="44.33589" lon="2.60674">
        <ele>589.90625</ele>
        <time>2014-06-12T05:04:49Z</time>
      </trkpt>
      <trkpt lat="44.33583" lon="2.60697">
        <ele>589.4255371</ele>
        <time>2014-06-12T05:04:55Z</time>
      </trkpt>
      <trkpt lat="44.33584" lon="2.60727">
        <ele>590.3869629</ele>
        <time>2014-06-12T05:05:03Z</time>
      </trkpt>
      <trkpt lat="44.33587" lon="2.60749">
        <ele>591.8288574</ele>
        <time>2014-06-12T05:05:09Z</time>
      </trkpt>
      <trkpt lat="44.3359" lon="2.60768">
        <ele>593.270752</ele>
        <time>2014-06-12T05:05:14Z</time>
      </trkpt>
      <trkpt lat="44.33595" lon="2.6079">
        <ele>594.2321777</ele>
        <time>2014-06-12T05:05:20Z</time>
      </trkpt>
      <trkpt lat="44.336" lon="2.60804">
        <ele>595.1933594</ele>
        <time>2014-06-12T05:05:24Z</time>
      </trkpt>
      <trkpt lat="44.33604" lon="2.60822">
        <ele>596.635498</ele>
        <time>2014-06-12T05:05:29Z</time>
      </trkpt>
      <trkpt lat="44.33611" lon="2.60847">
        <ele>597.5966797</ele>
        <time>2014-06-12T05:05:36Z</time>
      </trkpt>
      <trkpt lat="44.33616" lon="2.60868">
        <ele>598.0773926</ele>
        <time>2014-06-12T05:05:42Z</time>
      </trkpt>
      <trkpt lat="44.33618" lon="2.60884">
        <ele>598.5578613</ele>
        <time>2014-06-12T05:05:46Z</time>
      </trkpt>
      <trkpt lat="44.33616" lon="2.60908">
        <ele>598.5578613</ele>
        <time>2014-06-12T05:05:52Z</time>
      </trkpt>
      <trkpt lat="44.3361" lon="2.60927">
        <ele>598.0773926</ele>
        <time>2014-06-12T05:05:57Z</time>
      </trkpt>
      <trkpt lat="44.33603" lon="2.6095">
        <ele>598.5578613</ele>
        <time>2014-06-12T05:06:03Z</time>
      </trkpt>
      <trkpt lat="44.33598" lon="2.60965">
        <ele>599.0385742</ele>
        <time>2014-06-12T05:06:07Z</time>
      </trkpt>
      <trkpt lat="44.33591" lon="2.60986">
        <ele>600.4807129</ele>
        <time>2014-06-12T05:06:13Z</time>
      </trkpt>
      <trkpt lat="44.33585" lon="2.61001">
        <ele>601.4418945</ele>
        <time>2014-06-12T05:06:18Z</time>
      </trkpt>
      <trkpt lat="44.3358" lon="2.61015">
        <ele>600.9611816</ele>
        <time>2014-06-12T05:06:22Z</time>
      </trkpt>
      <trkpt lat="44.33584" lon="2.61025">
        <ele>600.4807129</ele>
        <time>2014-06-12T05:06:26Z</time>
      </trkpt>
      <trkpt lat="44.33593" lon="2.6103">
        <ele>599.5192871</ele>
        <time>2014-06-12T05:06:29Z</time>
      </trkpt>
      <trkpt lat="44.33609" lon="2.61044">
        <ele>598.0773926</ele>
        <time>2014-06-12T05:06:36Z</time>
      </trkpt>
      <trkpt lat="44.33618" lon="2.61051">
        <ele>597.5966797</ele>
        <time>2014-06-12T05:06:40Z</time>
      </trkpt>
      <trkpt lat="44.33629" lon="2.61059">
        <ele>597.5966797</ele>
        <time>2014-06-12T05:06:44Z</time>
      </trkpt>
      <trkpt lat="44.33638" lon="2.61069">
        <ele>598.0773926</ele>
        <time>2014-06-12T05:06:48Z</time>
      </trkpt>
      <trkpt lat="44.3364" lon="2.61072">
        <ele>597.5966797</ele>
        <time>2014-06-12T05:06:49Z</time>
      </trkpt>
      <trkpt lat="44.33642" lon="2.61078">
        <ele>597.5966797</ele>
        <time>2014-06-12T05:06:51Z</time>
      </trkpt>
      <trkpt lat="44.33642" lon="2.611">
        <ele>597.1159668</ele>
        <time>2014-06-12T05:06:57Z</time>
      </trkpt>
      <trkpt lat="44.33644" lon="2.61123">
        <ele>597.5966797</ele>
        <time>2014-06-12T05:07:03Z</time>
      </trkpt>
      <trkpt lat="44.33646" lon="2.61139">
        <ele>598.5578613</ele>
        <time>2014-06-12T05:07:08Z</time>
      </trkpt>
      <trkpt lat="44.33651" lon="2.61156">
        <ele>600</ele>
        <time>2014-06-12T05:07:13Z</time>
      </trkpt>
      <trkpt lat="44.33662" lon="2.61174">
        <ele>601.4418945</ele>
        <time>2014-06-12T05:07:19Z</time>
      </trkpt>
      <trkpt lat="44.33669" lon="2.61188">
        <ele>601.4418945</ele>
        <time>2014-06-12T05:07:24Z</time>
      </trkpt>
      <trkpt lat="44.33678" lon="2.61207">
        <ele>601.9226074</ele>
        <time>2014-06-12T05:07:30Z</time>
      </trkpt>
      <trkpt lat="44.33686" lon="2.61213">
        <ele>602.8837891</ele>
        <time>2014-06-12T05:07:34Z</time>
      </trkpt>
      <trkpt lat="44.33698" lon="2.61213">
        <ele>604.3261719</ele>
        <time>2014-06-12T05:07:39Z</time>
      </trkpt>
      <trkpt lat="44.33714" lon="2.61222">
        <ele>605.2873535</ele>
        <time>2014-06-12T05:07:45Z</time>
      </trkpt>
      <trkpt lat="44.33726" lon="2.61232">
        <ele>605.7680664</ele>
        <time>2014-06-12T05:07:50Z</time>
      </trkpt>
      <trkpt lat="44.33744" lon="2.61244">
        <ele>606.2485352</ele>
        <time>2014-06-12T05:07:57Z</time>
      </trkpt>
      <trkpt lat="44.33758" lon="2.61255">
        <ele>607.6906738</ele>
        <time>2014-06-12T05:08:03Z</time>
      </trkpt>
      <trkpt lat="44.33771" lon="2.61267">
        <ele>607.2099609</ele>
        <time>2014-06-12T05:08:09Z</time>
      </trkpt>
      <trkpt lat="44.33785" lon="2.61278">
        <ele>605.7680664</ele>
        <time>2014-06-12T05:08:15Z</time>
      </trkpt>
      <trkpt lat="44.33795" lon="2.613">
        <ele>605.7680664</ele>
        <time>2014-06-12T05:08:22Z</time>
      </trkpt>
      <trkpt lat="44.33802" lon="2.61318">
        <ele>608.1713867</ele>
        <time>2014-06-12T05:08:27Z</time>
      </trkpt>
      <trkpt lat="44.33807" lon="2.61344">
        <ele>609.6132813</ele>
        <time>2014-06-12T05:08:34Z</time>
      </trkpt>
      <trkpt lat="44.3381" lon="2.61367">
        <ele>610.09375</ele>
        <time>2014-06-12T05:08:40Z</time>
      </trkpt>
      <trkpt lat="44.33816" lon="2.61385">
        <ele>610.09375</ele>
        <time>2014-06-12T05:08:45Z</time>
      </trkpt>
      <trkpt lat="44.33822" lon="2.61398">
        <ele>609.6132813</ele>
        <time>2014-06-12T05:08:49Z</time>
      </trkpt>
      <trkpt lat="44.33832" lon="2.61416">
        <ele>609.6132813</ele>
        <time>2014-06-12T05:08:55Z</time>
      </trkpt>
      <trkpt lat="44.3384" lon="2.6143">
        <ele>610.5744629</ele>
        <time>2014-06-12T05:09:00Z</time>
      </trkpt>
      <trkpt lat="44.33851" lon="2.61444">
        <ele>610.5744629</ele>
        <time>2014-06-12T05:09:05Z</time>
      </trkpt>
      <trkpt lat="44.33861" lon="2.61458">
        <ele>610.5744629</ele>
        <time>2014-06-12T05:09:10Z</time>
      </trkpt>
      <trkpt lat="44.33871" lon="2.61471">
        <ele>610.5744629</ele>
        <time>2014-06-12T05:09:15Z</time>
      </trkpt>
      <trkpt lat="44.33877" lon="2.61486">
        <ele>609.6132813</ele>
        <time>2014-06-12T05:09:19Z</time>
      </trkpt>
      <trkpt lat="44.33883" lon="2.61509">
        <ele>610.5744629</ele>
        <time>2014-06-12T05:09:25Z</time>
      </trkpt>
      <trkpt lat="44.33886" lon="2.61532">
        <ele>611.0551758</ele>
        <time>2014-06-12T05:09:31Z</time>
      </trkpt>
      <trkpt lat="44.33889" lon="2.61548">
        <ele>611.0551758</ele>
        <time>2014-06-12T05:09:35Z</time>
      </trkpt>
      <trkpt lat="44.33893" lon="2.61565">
        <ele>610.09375</ele>
        <time>2014-06-12T05:09:40Z</time>
      </trkpt>
      <trkpt lat="44.33899" lon="2.61579">
        <ele>608.6518555</ele>
        <time>2014-06-12T05:09:45Z</time>
      </trkpt>
      <trkpt lat="44.33907" lon="2.61597">
        <ele>606.729248</ele>
        <time>2014-06-12T05:09:51Z</time>
      </trkpt>
      <trkpt lat="44.33918" lon="2.61621">
        <ele>607.6906738</ele>
        <time>2014-06-12T05:09:58Z</time>
      </trkpt>
      <trkpt lat="44.33929" lon="2.6164">
        <ele>609.1325684</ele>
        <time>2014-06-12T05:10:04Z</time>
      </trkpt>
      <trkpt lat="44.33939" lon="2.61655">
        <ele>612.0166016</ele>
        <time>2014-06-12T05:10:09Z</time>
      </trkpt>
      <trkpt lat="44.33951" lon="2.61669">
        <ele>614.9003906</ele>
        <time>2014-06-12T05:10:14Z</time>
      </trkpt>
      <trkpt lat="44.33962" lon="2.61682">
        <ele>617.3037109</ele>
        <time>2014-06-12T05:10:19Z</time>
      </trkpt>
      <trkpt lat="44.33976" lon="2.61697">
        <ele>618.2648926</ele>
        <time>2014-06-12T05:10:25Z</time>
      </trkpt>
      <trkpt lat="44.33988" lon="2.61711">
        <ele>619.2263184</ele>
        <time>2014-06-12T05:10:31Z</time>
      </trkpt>
      <trkpt lat="44.34001" lon="2.61726">
        <ele>621.1491699</ele>
        <time>2014-06-12T05:10:37Z</time>
      </trkpt>
      <trkpt lat="44.34013" lon="2.6174">
        <ele>622.5910645</ele>
        <time>2014-06-12T05:10:43Z</time>
      </trkpt>
      <trkpt lat="44.34022" lon="2.6175">
        <ele>623.0717773</ele>
        <time>2014-06-12T05:10:47Z</time>
      </trkpt>
      <trkpt lat="44.34034" lon="2.61764">
        <ele>623.5524902</ele>
        <time>2014-06-12T05:10:53Z</time>
      </trkpt>
      <trkpt lat="44.34045" lon="2.61778">
        <ele>624.032959</ele>
        <time>2014-06-12T05:10:58Z</time>
      </trkpt>
      <trkpt lat="44.34053" lon="2.6179">
        <ele>624.9943848</ele>
        <time>2014-06-12T05:11:02Z</time>
      </trkpt>
      <trkpt lat="44.34062" lon="2.61803">
        <ele>626.4362793</ele>
        <time>2014-06-12T05:11:07Z</time>
      </trkpt>
      <trkpt lat="44.3407" lon="2.6182">
        <ele>626.4362793</ele>
        <time>2014-06-12T05:11:12Z</time>
      </trkpt>
      <trkpt lat="44.34072" lon="2.61836">
        <ele>626.4362793</ele>
        <time>2014-06-12T05:11:16Z</time>
      </trkpt>
      <trkpt lat="44.34069" lon="2.61854">
        <ele>626.9169922</ele>
        <time>2014-06-12T05:11:21Z</time>
      </trkpt>
      <trkpt lat="44.34062" lon="2.61873">
        <ele>627.3977051</ele>
        <time>2014-06-12T05:11:26Z</time>
      </trkpt>
      <trkpt lat="44.34054" lon="2.61893">
        <ele>627.8781738</ele>
        <time>2014-06-12T05:11:32Z</time>
      </trkpt>
      <trkpt lat="44.34046" lon="2.61914">
        <ele>629.8007813</ele>
        <time>2014-06-12T05:11:39Z</time>
      </trkpt>
      <trkpt lat="44.34039" lon="2.61934">
        <ele>631.7233887</ele>
        <time>2014-06-12T05:11:46Z</time>
      </trkpt>
      <trkpt lat="44.34034" lon="2.61949">
        <ele>633.1652832</ele>
        <time>2014-06-12T05:11:51Z</time>
      </trkpt>
      <trkpt lat="44.34028" lon="2.61965">
        <ele>633.1652832</ele>
        <time>2014-06-12T05:11:56Z</time>
      </trkpt>
      <trkpt lat="44.34023" lon="2.6198">
        <ele>632.6848145</ele>
        <time>2014-06-12T05:12:01Z</time>
      </trkpt>
      <trkpt lat="44.34017" lon="2.61999">
        <ele>633.6459961</ele>
        <time>2014-06-12T05:12:07Z</time>
      </trkpt>
      <trkpt lat="44.34012" lon="2.62014">
        <ele>633.1652832</ele>
        <time>2014-06-12T05:12:12Z</time>
      </trkpt>
      <trkpt lat="44.34008" lon="2.62027">
        <ele>633.6459961</ele>
        <time>2014-06-12T05:12:16Z</time>
      </trkpt>
      <trkpt lat="44.34003" lon="2.62044">
        <ele>634.126709</ele>
        <time>2014-06-12T05:12:21Z</time>
      </trkpt>
      <trkpt lat="44.33998" lon="2.62059">
        <ele>633.1652832</ele>
        <time>2014-06-12T05:12:26Z</time>
      </trkpt>
      <trkpt lat="44.33992" lon="2.62078">
        <ele>633.6459961</ele>
        <time>2014-06-12T05:12:32Z</time>
      </trkpt>
      <trkpt lat="44.33988" lon="2.62095">
        <ele>633.6459961</ele>
        <time>2014-06-12T05:12:37Z</time>
      </trkpt>
      <trkpt lat="44.33983" lon="2.62115">
        <ele>635.0881348</ele>
        <time>2014-06-12T05:12:43Z</time>
      </trkpt>
      <trkpt lat="44.33978" lon="2.62135">
        <ele>636.0495605</ele>
        <time>2014-06-12T05:12:49Z</time>
      </trkpt>
      <trkpt lat="44.33974" lon="2.62156">
        <ele>637.0107422</ele>
        <time>2014-06-12T05:12:55Z</time>
      </trkpt>
      <trkpt lat="44.33969" lon="2.62173">
        <ele>637.4914551</ele>
        <time>2014-06-12T05:13:00Z</time>
      </trkpt>
      <trkpt lat="44.33962" lon="2.62195">
        <ele>639.4140625</ele>
        <time>2014-06-12T05:13:07Z</time>
      </trkpt>
      <trkpt lat="44.33954" lon="2.62215">
        <ele>641.8173828</ele>
        <time>2014-06-12T05:13:13Z</time>
      </trkpt>
      <trkpt lat="44.33947" lon="2.62229">
        <ele>642.7788086</ele>
        <time>2014-06-12T05:13:18Z</time>
      </trkpt>
      <trkpt lat="44.3394" lon="2.62243">
        <ele>643.2592773</ele>
        <time>2014-06-12T05:13:23Z</time>
      </trkpt>
      <trkpt lat="44.33934" lon="2.62258">
        <ele>644.7011719</ele>
        <time>2014-06-12T05:13:28Z</time>
      </trkpt>
      <trkpt lat="44.33927" lon="2.62282">
        <ele>644.7011719</ele>
        <time>2014-06-12T05:13:35Z</time>
      </trkpt>
      <trkpt lat="44.33924" lon="2.623">
        <ele>644.7011719</ele>
        <time>2014-06-12T05:13:40Z</time>
      </trkpt>
      <trkpt lat="44.33924" lon="2.62317">
        <ele>644.7011719</ele>
        <time>2014-06-12T05:13:45Z</time>
      </trkpt>
      <trkpt lat="44.33927" lon="2.62339">
        <ele>646.1433105</ele>
        <time>2014-06-12T05:13:51Z</time>
      </trkpt>
      <trkpt lat="44.33929" lon="2.62361">
        <ele>647.5852051</ele>
        <time>2014-06-12T05:13:57Z</time>
      </trkpt>
      <trkpt lat="44.33933" lon="2.62381">
        <ele>649.9885254</ele>
        <time>2014-06-12T05:14:03Z</time>
      </trkpt>
      <trkpt lat="44.33935" lon="2.62396">
        <ele>651.4304199</ele>
        <time>2014-06-12T05:14:07Z</time>
      </trkpt>
      <trkpt lat="44.33935" lon="2.62413">
        <ele>652.3918457</ele>
        <time>2014-06-12T05:14:12Z</time>
      </trkpt>
      <trkpt lat="44.33931" lon="2.62434">
        <ele>653.8339844</ele>
        <time>2014-06-12T05:14:18Z</time>
      </trkpt>
      <trkpt lat="44.33929" lon="2.62447">
        <ele>655.2758789</ele>
        <time>2014-06-12T05:14:22Z</time>
      </trkpt>
      <trkpt lat="44.33926" lon="2.62461">
        <ele>656.7177734</ele>
        <time>2014-06-12T05:14:27Z</time>
      </trkpt>
      <trkpt lat="44.33923" lon="2.62473">
        <ele>656.7177734</ele>
        <time>2014-06-12T05:14:31Z</time>
      </trkpt>
      <trkpt lat="44.33915" lon="2.62489">
        <ele>657.6791992</ele>
        <time>2014-06-12T05:14:37Z</time>
      </trkpt>
      <trkpt lat="44.33906" lon="2.62506">
        <ele>657.6791992</ele>
        <time>2014-06-12T05:14:43Z</time>
      </trkpt>
      <trkpt lat="44.33898" lon="2.6252">
        <ele>659.6018066</ele>
        <time>2014-06-12T05:14:48Z</time>
      </trkpt>
      <trkpt lat="44.33893" lon="2.62528">
        <ele>661.0437012</ele>
        <time>2014-06-12T05:14:51Z</time>
      </trkpt>
      <trkpt lat="44.33886" lon="2.62537">
        <ele>662.4855957</ele>
        <time>2014-06-12T05:14:55Z</time>
      </trkpt>
      <trkpt lat="44.33875" lon="2.62554">
        <ele>666.3308105</ele>
        <time>2014-06-12T05:15:02Z</time>
      </trkpt>
      <trkpt lat="44.33874" lon="2.62557">
        <ele>666.8115234</ele>
        <time>2014-06-12T05:15:03Z</time>
      </trkpt>
      <trkpt lat="44.33866" lon="2.62569">
        <ele>667.7727051</ele>
        <time>2014-06-12T05:15:08Z</time>
      </trkpt>
      <trkpt lat="44.33857" lon="2.62578">
        <ele>668.2536621</ele>
        <time>2014-06-12T05:15:14Z</time>
      </trkpt>
      <trkpt lat="44.33844" lon="2.62589">
        <ele>667.7727051</ele>
        <time>2014-06-12T05:15:19Z</time>
      </trkpt>
      <trkpt lat="44.33838" lon="2.626">
        <ele>668.734375</ele>
        <time>2014-06-12T05:15:23Z</time>
      </trkpt>
      <trkpt lat="44.33834" lon="2.62604">
        <ele>667.2922363</ele>
        <time>2014-06-12T05:15:27Z</time>
      </trkpt>
      <trkpt lat="44.33832" lon="2.62606">
        <ele>668.2536621</ele>
        <time>2014-06-12T05:15:31Z</time>
      </trkpt>
      <trkpt lat="44.33831" lon="2.62604">
        <ele>670.1762695</ele>
        <time>2014-06-12T05:15:41Z</time>
      </trkpt>
      <trkpt lat="44.33831" lon="2.62602">
        <ele>671.1376953</ele>
        <time>2014-06-12T05:15:53Z</time>
      </trkpt>
      <trkpt lat="44.3383" lon="2.626">
        <ele>670.6569824</ele>
        <time>2014-06-12T05:16:10Z</time>
      </trkpt>
      <trkpt lat="44.33826" lon="2.62605">
        <ele>669.6958008</ele>
        <time>2014-06-12T05:16:14Z</time>
      </trkpt>
      <trkpt lat="44.3382" lon="2.62632">
        <ele>664.4082031</ele>
        <time>2014-06-12T05:16:20Z</time>
      </trkpt>
      <trkpt lat="44.33812" lon="2.62648">
        <ele>663.4470215</ele>
        <time>2014-06-12T05:16:25Z</time>
      </trkpt>
      <trkpt lat="44.3381" lon="2.62651">
        <ele>663.9274902</ele>
        <time>2014-06-12T05:16:26Z</time>
      </trkpt>
      <trkpt lat="44.33806" lon="2.62665">
        <ele>663.9274902</ele>
        <time>2014-06-12T05:16:30Z</time>
      </trkpt>
      <trkpt lat="44.33797" lon="2.62678">
        <ele>666.3308105</ele>
        <time>2014-06-12T05:16:35Z</time>
      </trkpt>
      <trkpt lat="44.33794" lon="2.62681">
        <ele>666.3308105</ele>
        <time>2014-06-12T05:16:36Z</time>
      </trkpt>
      <trkpt lat="44.33782" lon="2.62694">
        <ele>667.2922363</ele>
        <time>2014-06-12T05:16:41Z</time>
      </trkpt>
      <trkpt lat="44.33769" lon="2.62697">
        <ele>667.2922363</ele>
        <time>2014-06-12T05:16:45Z</time>
      </trkpt>
      <trkpt lat="44.33755" lon="2.62696">
        <ele>665.8503418</ele>
        <time>2014-06-12T05:16:50Z</time>
      </trkpt>
      <trkpt lat="44.33735" lon="2.62696">
        <ele>665.8503418</ele>
        <time>2014-06-12T05:16:57Z</time>
      </trkpt>
      <trkpt lat="44.33718" lon="2.62702">
        <ele>666.3308105</ele>
        <time>2014-06-12T05:17:03Z</time>
      </trkpt>
      <trkpt lat="44.33705" lon="2.6272">
        <ele>667.7727051</ele>
        <time>2014-06-12T05:17:08Z</time>
      </trkpt>
      <trkpt lat="44.33692" lon="2.62746">
        <ele>666.3308105</ele>
        <time>2014-06-12T05:17:14Z</time>
      </trkpt>
      <trkpt lat="44.33689" lon="2.62752">
        <ele>667.2922363</ele>
        <time>2014-06-12T05:17:16Z</time>
      </trkpt>
      <trkpt lat="44.33685" lon="2.62757">
        <ele>667.2922363</ele>
        <time>2014-06-12T05:17:18Z</time>
      </trkpt>
      <trkpt lat="44.33675" lon="2.62778">
        <ele>665.8503418</ele>
        <time>2014-06-12T05:17:24Z</time>
      </trkpt>
      <trkpt lat="44.33667" lon="2.62786">
        <ele>665.3696289</ele>
        <time>2014-06-12T05:17:28Z</time>
      </trkpt>
      <trkpt lat="44.33655" lon="2.62793">
        <ele>664.4082031</ele>
        <time>2014-06-12T05:17:32Z</time>
      </trkpt>
      <trkpt lat="44.33648" lon="2.62797">
        <ele>662.9663086</ele>
        <time>2014-06-12T05:17:34Z</time>
      </trkpt>
      <trkpt lat="44.33629" lon="2.628">
        <ele>660.5629883</ele>
        <time>2014-06-12T05:17:40Z</time>
      </trkpt>
      <trkpt lat="44.33613" lon="2.62805">
        <ele>659.1210938</ele>
        <time>2014-06-12T05:17:45Z</time>
      </trkpt>
      <trkpt lat="44.33599" lon="2.62808">
        <ele>656.7177734</ele>
        <time>2014-06-12T05:17:49Z</time>
      </trkpt>
      <trkpt lat="44.33588" lon="2.62812">
        <ele>655.2758789</ele>
        <time>2014-06-12T05:17:53Z</time>
      </trkpt>
      <trkpt lat="44.33577" lon="2.62819">
        <ele>653.8339844</ele>
        <time>2014-06-12T05:17:57Z</time>
      </trkpt>
      <trkpt lat="44.33571" lon="2.62829">
        <ele>653.8339844</ele>
        <time>2014-06-12T05:18:00Z</time>
      </trkpt>
      <trkpt lat="44.33563" lon="2.62845">
        <ele>653.8339844</ele>
        <time>2014-06-12T05:18:04Z</time>
      </trkpt>
      <trkpt lat="44.33558" lon="2.62856">
        <ele>655.2758789</ele>
        <time>2014-06-12T05:18:08Z</time>
      </trkpt>
      <trkpt lat="44.33546" lon="2.62872">
        <ele>655.2758789</ele>
        <time>2014-06-12T05:18:13Z</time>
      </trkpt>
      <trkpt lat="44.33543" lon="2.62878">
        <ele>654.795166</ele>
        <time>2014-06-12T05:18:15Z</time>
      </trkpt>
      <trkpt lat="44.33548" lon="2.62894">
        <ele>652.3918457</ele>
        <time>2014-06-12T05:18:20Z</time>
      </trkpt>
      <trkpt lat="44.33552" lon="2.629">
        <ele>651.9111328</ele>
        <time>2014-06-12T05:18:22Z</time>
      </trkpt>
      <trkpt lat="44.33563" lon="2.62908">
        <ele>649.9885254</ele>
        <time>2014-06-12T05:18:28Z</time>
      </trkpt>
      <trkpt lat="44.3357" lon="2.62911">
        <ele>649.5078125</ele>
        <time>2014-06-12T05:18:32Z</time>
      </trkpt>
      <trkpt lat="44.33573" lon="2.62914">
        <ele>649.5078125</ele>
        <time>2014-06-12T05:18:35Z</time>
      </trkpt>
      <trkpt lat="44.33581" lon="2.62917">
        <ele>651.4304199</ele>
        <time>2014-06-12T05:18:43Z</time>
      </trkpt>
      <trkpt lat="44.33583" lon="2.62917">
        <ele>652.8725586</ele>
        <time>2014-06-12T05:18:46Z</time>
      </trkpt>
    </trkseg>
  </trk>
</gpx>